<?xml version="1.0" encoding="UTF-8" standalone="no" ?>
<gpx xmlns="http://www.topografix.com/GPX/1/1" xmlns:xsi="http://www.w3.org/2001/XMLSchema-instance" xsi:schemaLocation="http://www.topografix.com/GPX/1/1 http://www.topografix.com/GPX/1/1/gpx.xsd" version="1.1" creator="VisuGPX - https://www.visugpx.com">
  <metadata>
    <name>Barbechat</name>
    <desc><![CDATA[Barbechat avec Fredo]]></desc>
  </metadata>
  <trk>
    <name><![CDATA[2014-06-06 09:40]]></name>
    <desc><![CDATA[<h1>OruxMaps</h1><br /><hr align="center" width="480" style="height: 2px; width: 517px"/><h2>Nom: 2014-06-06 09:40</h2><br /><p>Temps de départ: 06/06/2014 09:58</p><p>Temps d'arrivée: 06/06/2014 11:47</p><p>Distance: 18 km (01:48)</p><p>Temps déplacement: 01:01</p><p>Vitesse moyenne: 9,9 km/h</p><p>Vitesse moyenne: 17,4 km/h</p><p>Vitess Max.: 43,9 km/h</p><p>Altitude minimale: -27 m</p><p>Altitude maximale: 62 m</p><p>Vitesse d'élévation: 302,2 m/h</p><p>Vitesse de descente: -504,9 m/h</p><p>Gain Altitude: 273 m</p><p>Perte Altitude: -302 m</p><p>Temps d'élévation: 00:54</p><p>Temps de descente: 00:36</p><hr align="center" width="480" style="height: 2px; width: 517px"/>]]></desc>
    <trkseg>
      <trkpt lat="47.26595" lon="-1.28996">
        <ele>50.66</ele>
        <time>2014-06-06T07:58:22Z</time>
      </trkpt>
      <trkpt lat="47.26574" lon="-1.28964">
        <ele>50.46</ele>
        <time>2014-06-06T07:58:24Z</time>
      </trkpt>
      <trkpt lat="47.26549" lon="-1.28939">
        <ele>50.34</ele>
        <time>2014-06-06T07:58:26Z</time>
      </trkpt>
      <trkpt lat="47.26526" lon="-1.28915">
        <ele>50.16</ele>
        <time>2014-06-06T07:58:29Z</time>
      </trkpt>
      <trkpt lat="47.26501" lon="-1.28892">
        <ele>50.02</ele>
        <time>2014-06-06T07:58:32Z</time>
      </trkpt>
      <trkpt lat="47.26485" lon="-1.2888">
        <ele>49.89</ele>
        <time>2014-06-06T07:58:35Z</time>
      </trkpt>
      <trkpt lat="47.26466" lon="-1.28873">
        <ele>49.82</ele>
        <time>2014-06-06T07:58:38Z</time>
      </trkpt>
      <trkpt lat="47.26445" lon="-1.28865">
        <ele>49.68</ele>
        <time>2014-06-06T07:58:43Z</time>
      </trkpt>
      <trkpt lat="47.26465" lon="-1.28873">
        <ele>49.83</ele>
        <time>2014-06-06T07:58:57Z</time>
      </trkpt>
      <trkpt lat="47.26481" lon="-1.28889">
        <ele>49.95</ele>
        <time>2014-06-06T07:59:01Z</time>
      </trkpt>
      <trkpt lat="47.265" lon="-1.28905">
        <ele>50.05</ele>
        <time>2014-06-06T07:59:05Z</time>
      </trkpt>
      <trkpt lat="47.26515" lon="-1.28924">
        <ele>50.21</ele>
        <time>2014-06-06T07:59:09Z</time>
      </trkpt>
      <trkpt lat="47.26527" lon="-1.28944">
        <ele>50.33</ele>
        <time>2014-06-06T07:59:12Z</time>
      </trkpt>
      <trkpt lat="47.2654" lon="-1.28972">
        <ele>50.5</ele>
        <time>2014-06-06T07:59:16Z</time>
      </trkpt>
      <trkpt lat="47.26552" lon="-1.29003">
        <ele>50.63</ele>
        <time>2014-06-06T07:59:20Z</time>
      </trkpt>
      <trkpt lat="47.26567" lon="-1.29028">
        <ele>50.75</ele>
        <time>2014-06-06T07:59:24Z</time>
      </trkpt>
      <trkpt lat="47.26589" lon="-1.29043">
        <ele>50.85</ele>
        <time>2014-06-06T07:59:28Z</time>
      </trkpt>
      <trkpt lat="47.26604" lon="-1.29064">
        <ele>50.95</ele>
        <time>2014-06-06T07:59:32Z</time>
      </trkpt>
      <trkpt lat="47.26611" lon="-1.2909">
        <ele>51.21</ele>
        <time>2014-06-06T07:59:44Z</time>
      </trkpt>
      <trkpt lat="47.26628" lon="-1.291">
        <ele>51.36</ele>
        <time>2014-06-06T07:59:52Z</time>
      </trkpt>
      <trkpt lat="47.26642" lon="-1.29118">
        <ele>51.39</ele>
        <time>2014-06-06T08:00:04Z</time>
      </trkpt>
      <trkpt lat="47.26661" lon="-1.29116">
        <ele>51.44</ele>
        <time>2014-06-06T08:00:15Z</time>
      </trkpt>
      <trkpt lat="47.26682" lon="-1.29125">
        <ele>51.71</ele>
        <time>2014-06-06T08:00:32Z</time>
      </trkpt>
      <trkpt lat="47.26702" lon="-1.29133">
        <ele>52.1</ele>
        <time>2014-06-06T08:00:41Z</time>
      </trkpt>
      <trkpt lat="47.26721" lon="-1.29144">
        <ele>52.52</ele>
        <time>2014-06-06T08:00:50Z</time>
      </trkpt>
      <trkpt lat="47.26739" lon="-1.29138">
        <ele>53.15</ele>
        <time>2014-06-06T08:01:01Z</time>
      </trkpt>
      <trkpt lat="47.26765" lon="-1.29142">
        <ele>53.49</ele>
        <time>2014-06-06T08:01:10Z</time>
      </trkpt>
      <trkpt lat="47.26777" lon="-1.29161">
        <ele>54.67</ele>
        <time>2014-06-06T08:01:24Z</time>
      </trkpt>
      <trkpt lat="47.2679" lon="-1.29181">
        <ele>55.85</ele>
        <time>2014-06-06T08:01:36Z</time>
      </trkpt>
      <trkpt lat="47.26803" lon="-1.29202">
        <ele>57.02</ele>
        <time>2014-06-06T08:01:52Z</time>
      </trkpt>
      <trkpt lat="47.26815" lon="-1.29223">
        <ele>57.9</ele>
        <time>2014-06-06T08:02:13Z</time>
      </trkpt>
      <trkpt lat="47.26822" lon="-1.29248">
        <ele>58.73</ele>
        <time>2014-06-06T08:02:30Z</time>
      </trkpt>
      <trkpt lat="47.26831" lon="-1.29271">
        <ele>60.35</ele>
        <time>2014-06-06T08:02:58Z</time>
      </trkpt>
      <trkpt lat="47.26831" lon="-1.29298">
        <ele>60.81</ele>
        <time>2014-06-06T08:03:14Z</time>
      </trkpt>
      <trkpt lat="47.26828" lon="-1.29326">
        <ele>61.11</ele>
        <time>2014-06-06T08:03:29Z</time>
      </trkpt>
      <trkpt lat="47.2683" lon="-1.29354">
        <ele>61.45</ele>
        <time>2014-06-06T08:03:44Z</time>
      </trkpt>
      <trkpt lat="47.26831" lon="-1.2938">
        <ele>61.83</ele>
        <time>2014-06-06T08:03:55Z</time>
      </trkpt>
      <trkpt lat="47.26836" lon="-1.29408">
        <ele>62.26</ele>
        <time>2014-06-06T08:04:13Z</time>
      </trkpt>
      <trkpt lat="47.26852" lon="-1.29422">
        <ele>62.55</ele>
        <time>2014-06-06T08:04:34Z</time>
      </trkpt>
      <trkpt lat="47.26862" lon="-1.29446">
        <ele>62.66</ele>
        <time>2014-06-06T08:04:47Z</time>
      </trkpt>
      <trkpt lat="47.26871" lon="-1.2947">
        <ele>62.93</ele>
        <time>2014-06-06T08:04:56Z</time>
      </trkpt>
      <trkpt lat="47.26882" lon="-1.29492">
        <ele>30.45</ele>
        <time>2014-06-06T08:09:19Z</time>
      </trkpt>
      <trkpt lat="47.26894" lon="-1.29512">
        <ele>30</ele>
        <time>2014-06-06T08:09:28Z</time>
      </trkpt>
      <trkpt lat="47.26909" lon="-1.29528">
        <ele>29.79</ele>
        <time>2014-06-06T08:09:35Z</time>
      </trkpt>
      <trkpt lat="47.26924" lon="-1.29547">
        <ele>29.41</ele>
        <time>2014-06-06T08:09:41Z</time>
      </trkpt>
      <trkpt lat="47.2694" lon="-1.29566">
        <ele>28.89</ele>
        <time>2014-06-06T08:09:47Z</time>
      </trkpt>
      <trkpt lat="47.26956" lon="-1.29582">
        <ele>28.62</ele>
        <time>2014-06-06T08:09:53Z</time>
      </trkpt>
      <trkpt lat="47.26968" lon="-1.29605">
        <ele>28.06</ele>
        <time>2014-06-06T08:10:00Z</time>
      </trkpt>
      <trkpt lat="47.2698" lon="-1.29629">
        <ele>27.44</ele>
        <time>2014-06-06T08:10:08Z</time>
      </trkpt>
      <trkpt lat="47.26983" lon="-1.29657">
        <ele>26.81</ele>
        <time>2014-06-06T08:10:15Z</time>
      </trkpt>
      <trkpt lat="47.26997" lon="-1.29674">
        <ele>26.35</ele>
        <time>2014-06-06T08:10:21Z</time>
      </trkpt>
      <trkpt lat="47.27011" lon="-1.29694">
        <ele>25.77</ele>
        <time>2014-06-06T08:10:26Z</time>
      </trkpt>
      <trkpt lat="47.27019" lon="-1.29725">
        <ele>25.11</ele>
        <time>2014-06-06T08:10:32Z</time>
      </trkpt>
      <trkpt lat="47.27014" lon="-1.2976">
        <ele>24.57</ele>
        <time>2014-06-06T08:10:37Z</time>
      </trkpt>
      <trkpt lat="47.27018" lon="-1.29787">
        <ele>24.14</ele>
        <time>2014-06-06T08:10:41Z</time>
      </trkpt>
      <trkpt lat="47.27032" lon="-1.2981">
        <ele>23.82</ele>
        <time>2014-06-06T08:10:46Z</time>
      </trkpt>
      <trkpt lat="47.27047" lon="-1.29835">
        <ele>23.49</ele>
        <time>2014-06-06T08:10:51Z</time>
      </trkpt>
      <trkpt lat="47.27062" lon="-1.29858">
        <ele>23.19</ele>
        <time>2014-06-06T08:10:55Z</time>
      </trkpt>
      <trkpt lat="47.27074" lon="-1.2988">
        <ele>22.64</ele>
        <time>2014-06-06T08:11:01Z</time>
      </trkpt>
      <trkpt lat="47.27091" lon="-1.29896">
        <ele>21.33</ele>
        <time>2014-06-06T08:11:31Z</time>
      </trkpt>
      <trkpt lat="47.27108" lon="-1.29908">
        <ele>21.44</ele>
        <time>2014-06-06T08:11:35Z</time>
      </trkpt>
      <trkpt lat="47.2713" lon="-1.29924">
        <ele>21.42</ele>
        <time>2014-06-06T08:11:39Z</time>
      </trkpt>
      <trkpt lat="47.2715" lon="-1.29941">
        <ele>21.42</ele>
        <time>2014-06-06T08:11:43Z</time>
      </trkpt>
      <trkpt lat="47.27169" lon="-1.2996">
        <ele>21.58</ele>
        <time>2014-06-06T08:11:47Z</time>
      </trkpt>
      <trkpt lat="47.27186" lon="-1.29981">
        <ele>21.84</ele>
        <time>2014-06-06T08:11:52Z</time>
      </trkpt>
      <trkpt lat="47.27203" lon="-1.29994">
        <ele>21.88</ele>
        <time>2014-06-06T08:11:56Z</time>
      </trkpt>
      <trkpt lat="47.27222" lon="-1.30008">
        <ele>21.86</ele>
        <time>2014-06-06T08:12:00Z</time>
      </trkpt>
      <trkpt lat="47.27241" lon="-1.30027">
        <ele>21.84</ele>
        <time>2014-06-06T08:12:04Z</time>
      </trkpt>
      <trkpt lat="47.27257" lon="-1.3004">
        <ele>21.86</ele>
        <time>2014-06-06T08:12:07Z</time>
      </trkpt>
      <trkpt lat="47.27276" lon="-1.30055">
        <ele>21.77</ele>
        <time>2014-06-06T08:12:11Z</time>
      </trkpt>
      <trkpt lat="47.27291" lon="-1.30071">
        <ele>21.67</ele>
        <time>2014-06-06T08:12:17Z</time>
      </trkpt>
      <trkpt lat="47.2731" lon="-1.3006">
        <ele>21.86</ele>
        <time>2014-06-06T08:12:23Z</time>
      </trkpt>
      <trkpt lat="47.27327" lon="-1.30048">
        <ele>22.01</ele>
        <time>2014-06-06T08:12:29Z</time>
      </trkpt>
      <trkpt lat="47.27343" lon="-1.30032">
        <ele>22.55</ele>
        <time>2014-06-06T08:12:35Z</time>
      </trkpt>
      <trkpt lat="47.27361" lon="-1.30019">
        <ele>23.08</ele>
        <time>2014-06-06T08:12:39Z</time>
      </trkpt>
      <trkpt lat="47.27375" lon="-1.30001">
        <ele>23.7</ele>
        <time>2014-06-06T08:12:43Z</time>
      </trkpt>
      <trkpt lat="47.27392" lon="-1.29986">
        <ele>24.37</ele>
        <time>2014-06-06T08:12:47Z</time>
      </trkpt>
      <trkpt lat="47.27412" lon="-1.29977">
        <ele>24.79</ele>
        <time>2014-06-06T08:12:50Z</time>
      </trkpt>
      <trkpt lat="47.27433" lon="-1.29973">
        <ele>25.09</ele>
        <time>2014-06-06T08:12:54Z</time>
      </trkpt>
      <trkpt lat="47.27455" lon="-1.29969">
        <ele>25.73</ele>
        <time>2014-06-06T08:12:58Z</time>
      </trkpt>
      <trkpt lat="47.27477" lon="-1.29967">
        <ele>26.03</ele>
        <time>2014-06-06T08:13:02Z</time>
      </trkpt>
      <trkpt lat="47.275" lon="-1.29965">
        <ele>26.44</ele>
        <time>2014-06-06T08:13:06Z</time>
      </trkpt>
      <trkpt lat="47.27521" lon="-1.29961">
        <ele>26.61</ele>
        <time>2014-06-06T08:13:09Z</time>
      </trkpt>
      <trkpt lat="47.2754" lon="-1.29959">
        <ele>26.88</ele>
        <time>2014-06-06T08:13:12Z</time>
      </trkpt>
      <trkpt lat="47.27563" lon="-1.29955">
        <ele>26.99</ele>
        <time>2014-06-06T08:13:16Z</time>
      </trkpt>
      <trkpt lat="47.27583" lon="-1.29954">
        <ele>27.85</ele>
        <time>2014-06-06T08:13:20Z</time>
      </trkpt>
      <trkpt lat="47.27602" lon="-1.29955">
        <ele>28.91</ele>
        <time>2014-06-06T08:13:25Z</time>
      </trkpt>
      <trkpt lat="47.27623" lon="-1.2995">
        <ele>31.34</ele>
        <time>2014-06-06T08:13:29Z</time>
      </trkpt>
      <trkpt lat="47.27642" lon="-1.29943">
        <ele>32.27</ele>
        <time>2014-06-06T08:13:33Z</time>
      </trkpt>
      <trkpt lat="47.2768" lon="-1.29926">
        <ele>32.61</ele>
        <time>2014-06-06T08:13:40Z</time>
      </trkpt>
      <trkpt lat="47.27697" lon="-1.29917">
        <ele>32.69</ele>
        <time>2014-06-06T08:13:44Z</time>
      </trkpt>
      <trkpt lat="47.27718" lon="-1.29908">
        <ele>32.7</ele>
        <time>2014-06-06T08:13:48Z</time>
      </trkpt>
      <trkpt lat="47.2774" lon="-1.29898">
        <ele>32.5</ele>
        <time>2014-06-06T08:13:52Z</time>
      </trkpt>
      <trkpt lat="47.27757" lon="-1.29886">
        <ele>33.2</ele>
        <time>2014-06-06T08:13:56Z</time>
      </trkpt>
      <trkpt lat="47.27775" lon="-1.29874">
        <ele>34.11</ele>
        <time>2014-06-06T08:14:02Z</time>
      </trkpt>
      <trkpt lat="47.27799" lon="-1.29866">
        <ele>33.66</ele>
        <time>2014-06-06T08:14:17Z</time>
      </trkpt>
      <trkpt lat="47.27815" lon="-1.29881">
        <ele>28.15</ele>
        <time>2014-06-06T08:15:14Z</time>
      </trkpt>
      <trkpt lat="47.27831" lon="-1.29903">
        <ele>27.76</ele>
        <time>2014-06-06T08:15:19Z</time>
      </trkpt>
      <trkpt lat="47.27842" lon="-1.29924">
        <ele>27.59</ele>
        <time>2014-06-06T08:15:22Z</time>
      </trkpt>
      <trkpt lat="47.27854" lon="-1.29944">
        <ele>27.57</ele>
        <time>2014-06-06T08:15:25Z</time>
      </trkpt>
      <trkpt lat="47.27866" lon="-1.29967">
        <ele>27.61</ele>
        <time>2014-06-06T08:15:28Z</time>
      </trkpt>
      <trkpt lat="47.27877" lon="-1.29989">
        <ele>27.87</ele>
        <time>2014-06-06T08:15:31Z</time>
      </trkpt>
      <trkpt lat="47.27889" lon="-1.30016">
        <ele>28.04</ele>
        <time>2014-06-06T08:15:34Z</time>
      </trkpt>
      <trkpt lat="47.27899" lon="-1.3004">
        <ele>27.97</ele>
        <time>2014-06-06T08:15:37Z</time>
      </trkpt>
      <trkpt lat="47.27911" lon="-1.30061">
        <ele>27.75</ele>
        <time>2014-06-06T08:15:40Z</time>
      </trkpt>
      <trkpt lat="47.27923" lon="-1.30085">
        <ele>27.58</ele>
        <time>2014-06-06T08:15:44Z</time>
      </trkpt>
      <trkpt lat="47.27932" lon="-1.3011">
        <ele>27.39</ele>
        <time>2014-06-06T08:15:48Z</time>
      </trkpt>
      <trkpt lat="47.27943" lon="-1.30135">
        <ele>27.36</ele>
        <time>2014-06-06T08:15:52Z</time>
      </trkpt>
      <trkpt lat="47.27953" lon="-1.30158">
        <ele>27.55</ele>
        <time>2014-06-06T08:15:56Z</time>
      </trkpt>
      <trkpt lat="47.27965" lon="-1.30184">
        <ele>27.84</ele>
        <time>2014-06-06T08:16:02Z</time>
      </trkpt>
      <trkpt lat="47.27971" lon="-1.30215">
        <ele>27.74</ele>
        <time>2014-06-06T08:16:07Z</time>
      </trkpt>
      <trkpt lat="47.27976" lon="-1.30242">
        <ele>27.53</ele>
        <time>2014-06-06T08:16:11Z</time>
      </trkpt>
      <trkpt lat="47.27983" lon="-1.30267">
        <ele>27.21</ele>
        <time>2014-06-06T08:16:15Z</time>
      </trkpt>
      <trkpt lat="47.2799" lon="-1.30299">
        <ele>27.07</ele>
        <time>2014-06-06T08:16:19Z</time>
      </trkpt>
      <trkpt lat="47.27996" lon="-1.30325">
        <ele>26.93</ele>
        <time>2014-06-06T08:16:22Z</time>
      </trkpt>
      <trkpt lat="47.28001" lon="-1.30351">
        <ele>26.74</ele>
        <time>2014-06-06T08:16:25Z</time>
      </trkpt>
      <trkpt lat="47.28006" lon="-1.30378">
        <ele>26.53</ele>
        <time>2014-06-06T08:16:28Z</time>
      </trkpt>
      <trkpt lat="47.28012" lon="-1.30404">
        <ele>26.31</ele>
        <time>2014-06-06T08:16:31Z</time>
      </trkpt>
      <trkpt lat="47.28022" lon="-1.30427">
        <ele>26.11</ele>
        <time>2014-06-06T08:16:34Z</time>
      </trkpt>
      <trkpt lat="47.28034" lon="-1.30449">
        <ele>25.85</ele>
        <time>2014-06-06T08:16:37Z</time>
      </trkpt>
      <trkpt lat="47.2805" lon="-1.30483">
        <ele>25.37</ele>
        <time>2014-06-06T08:16:41Z</time>
      </trkpt>
      <trkpt lat="47.28064" lon="-1.30506">
        <ele>24.98</ele>
        <time>2014-06-06T08:16:44Z</time>
      </trkpt>
      <trkpt lat="47.28079" lon="-1.30529">
        <ele>24.66</ele>
        <time>2014-06-06T08:16:47Z</time>
      </trkpt>
      <trkpt lat="47.28089" lon="-1.3056">
        <ele>24.31</ele>
        <time>2014-06-06T08:16:50Z</time>
      </trkpt>
      <trkpt lat="47.28092" lon="-1.30594">
        <ele>24.17</ele>
        <time>2014-06-06T08:16:53Z</time>
      </trkpt>
      <trkpt lat="47.28091" lon="-1.30629">
        <ele>24.16</ele>
        <time>2014-06-06T08:16:56Z</time>
      </trkpt>
      <trkpt lat="47.28086" lon="-1.30661">
        <ele>24.11</ele>
        <time>2014-06-06T08:16:59Z</time>
      </trkpt>
      <trkpt lat="47.28079" lon="-1.30708">
        <ele>24.2</ele>
        <time>2014-06-06T08:17:03Z</time>
      </trkpt>
      <trkpt lat="47.28072" lon="-1.30742">
        <ele>24.25</ele>
        <time>2014-06-06T08:17:06Z</time>
      </trkpt>
      <trkpt lat="47.28065" lon="-1.30775">
        <ele>24.21</ele>
        <time>2014-06-06T08:17:09Z</time>
      </trkpt>
      <trkpt lat="47.28057" lon="-1.30806">
        <ele>24.13</ele>
        <time>2014-06-06T08:17:12Z</time>
      </trkpt>
      <trkpt lat="47.28043" lon="-1.30831">
        <ele>24.07</ele>
        <time>2014-06-06T08:17:15Z</time>
      </trkpt>
      <trkpt lat="47.28025" lon="-1.30844">
        <ele>23.88</ele>
        <time>2014-06-06T08:17:18Z</time>
      </trkpt>
      <trkpt lat="47.28006" lon="-1.30852">
        <ele>23.49</ele>
        <time>2014-06-06T08:17:21Z</time>
      </trkpt>
      <trkpt lat="47.27987" lon="-1.30861">
        <ele>23.17</ele>
        <time>2014-06-06T08:17:24Z</time>
      </trkpt>
      <trkpt lat="47.27975" lon="-1.30882">
        <ele>22.61</ele>
        <time>2014-06-06T08:17:28Z</time>
      </trkpt>
      <trkpt lat="47.27974" lon="-1.30914">
        <ele>22.08</ele>
        <time>2014-06-06T08:17:32Z</time>
      </trkpt>
      <trkpt lat="47.27975" lon="-1.3094">
        <ele>21.54</ele>
        <time>2014-06-06T08:17:35Z</time>
      </trkpt>
      <trkpt lat="47.27976" lon="-1.30968">
        <ele>20.9</ele>
        <time>2014-06-06T08:17:38Z</time>
      </trkpt>
      <trkpt lat="47.27977" lon="-1.30996">
        <ele>20.73</ele>
        <time>2014-06-06T08:17:41Z</time>
      </trkpt>
      <trkpt lat="47.27978" lon="-1.31023">
        <ele>20.4</ele>
        <time>2014-06-06T08:17:46Z</time>
      </trkpt>
      <trkpt lat="47.27973" lon="-1.30991">
        <ele>21.36</ele>
        <time>2014-06-06T08:18:14Z</time>
      </trkpt>
      <trkpt lat="47.27973" lon="-1.30961">
        <ele>20.63</ele>
        <time>2014-06-06T08:18:20Z</time>
      </trkpt>
      <trkpt lat="47.27971" lon="-1.30933">
        <ele>20.11</ele>
        <time>2014-06-06T08:18:28Z</time>
      </trkpt>
      <trkpt lat="47.27969" lon="-1.30902">
        <ele>20.65</ele>
        <time>2014-06-06T08:18:39Z</time>
      </trkpt>
      <trkpt lat="47.27969" lon="-1.30872">
        <ele>20.65</ele>
        <time>2014-06-06T08:18:44Z</time>
      </trkpt>
      <trkpt lat="47.27988" lon="-1.30857">
        <ele>20.91</ele>
        <time>2014-06-06T08:18:50Z</time>
      </trkpt>
      <trkpt lat="47.28008" lon="-1.30851">
        <ele>21.49</ele>
        <time>2014-06-06T08:18:55Z</time>
      </trkpt>
      <trkpt lat="47.28025" lon="-1.30841">
        <ele>21.53</ele>
        <time>2014-06-06T08:18:59Z</time>
      </trkpt>
      <trkpt lat="47.28041" lon="-1.30825">
        <ele>21.35</ele>
        <time>2014-06-06T08:19:03Z</time>
      </trkpt>
      <trkpt lat="47.28054" lon="-1.30804">
        <ele>21.36</ele>
        <time>2014-06-06T08:19:06Z</time>
      </trkpt>
      <trkpt lat="47.28062" lon="-1.30774">
        <ele>21.41</ele>
        <time>2014-06-06T08:19:10Z</time>
      </trkpt>
      <trkpt lat="47.28067" lon="-1.30747">
        <ele>21.4</ele>
        <time>2014-06-06T08:19:14Z</time>
      </trkpt>
      <trkpt lat="47.28072" lon="-1.30717">
        <ele>21.58</ele>
        <time>2014-06-06T08:19:18Z</time>
      </trkpt>
      <trkpt lat="47.28078" lon="-1.30685">
        <ele>21.86</ele>
        <time>2014-06-06T08:19:22Z</time>
      </trkpt>
      <trkpt lat="47.28083" lon="-1.30654">
        <ele>21.71</ele>
        <time>2014-06-06T08:19:26Z</time>
      </trkpt>
      <trkpt lat="47.28086" lon="-1.30625">
        <ele>21.65</ele>
        <time>2014-06-06T08:19:30Z</time>
      </trkpt>
      <trkpt lat="47.28087" lon="-1.30596">
        <ele>21.85</ele>
        <time>2014-06-06T08:19:34Z</time>
      </trkpt>
      <trkpt lat="47.28084" lon="-1.30565">
        <ele>21.74</ele>
        <time>2014-06-06T08:19:38Z</time>
      </trkpt>
      <trkpt lat="47.28074" lon="-1.30536">
        <ele>22.05</ele>
        <time>2014-06-06T08:19:45Z</time>
      </trkpt>
      <trkpt lat="47.28061" lon="-1.30515">
        <ele>22.21</ele>
        <time>2014-06-06T08:19:50Z</time>
      </trkpt>
      <trkpt lat="47.28048" lon="-1.30488">
        <ele>22.17</ele>
        <time>2014-06-06T08:19:55Z</time>
      </trkpt>
      <trkpt lat="47.28036" lon="-1.30468">
        <ele>22.33</ele>
        <time>2014-06-06T08:19:59Z</time>
      </trkpt>
      <trkpt lat="47.28025" lon="-1.30444">
        <ele>22.55</ele>
        <time>2014-06-06T08:20:03Z</time>
      </trkpt>
      <trkpt lat="47.28007" lon="-1.30445">
        <ele>24.56</ele>
        <time>2014-06-06T08:20:21Z</time>
      </trkpt>
      <trkpt lat="47.27989" lon="-1.3046">
        <ele>25.29</ele>
        <time>2014-06-06T08:20:30Z</time>
      </trkpt>
      <trkpt lat="47.27975" lon="-1.30478">
        <ele>26.23</ele>
        <time>2014-06-06T08:20:37Z</time>
      </trkpt>
      <trkpt lat="47.27959" lon="-1.305">
        <ele>26.93</ele>
        <time>2014-06-06T08:20:44Z</time>
      </trkpt>
      <trkpt lat="47.27946" lon="-1.30519">
        <ele>27.6</ele>
        <time>2014-06-06T08:20:50Z</time>
      </trkpt>
      <trkpt lat="47.27952" lon="-1.30493">
        <ele>29.93</ele>
        <time>2014-06-06T08:21:08Z</time>
      </trkpt>
      <trkpt lat="47.27968" lon="-1.30471">
        <ele>31.52</ele>
        <time>2014-06-06T08:21:14Z</time>
      </trkpt>
      <trkpt lat="47.27983" lon="-1.30454">
        <ele>32.62</ele>
        <time>2014-06-06T08:21:19Z</time>
      </trkpt>
      <trkpt lat="47.27995" lon="-1.30432">
        <ele>33.35</ele>
        <time>2014-06-06T08:21:27Z</time>
      </trkpt>
      <trkpt lat="47.27994" lon="-1.30405">
        <ele>33.51</ele>
        <time>2014-06-06T08:21:31Z</time>
      </trkpt>
      <trkpt lat="47.27993" lon="-1.30377">
        <ele>33.75</ele>
        <time>2014-06-06T08:21:35Z</time>
      </trkpt>
      <trkpt lat="47.2799" lon="-1.30351">
        <ele>34.39</ele>
        <time>2014-06-06T08:21:39Z</time>
      </trkpt>
      <trkpt lat="47.27985" lon="-1.30324">
        <ele>35.1</ele>
        <time>2014-06-06T08:21:43Z</time>
      </trkpt>
      <trkpt lat="47.27979" lon="-1.30294">
        <ele>35.49</ele>
        <time>2014-06-06T08:21:48Z</time>
      </trkpt>
      <trkpt lat="47.27976" lon="-1.30267">
        <ele>36.04</ele>
        <time>2014-06-06T08:21:53Z</time>
      </trkpt>
      <trkpt lat="47.27972" lon="-1.3024">
        <ele>36.56</ele>
        <time>2014-06-06T08:21:58Z</time>
      </trkpt>
      <trkpt lat="47.27962" lon="-1.30213">
        <ele>37.2</ele>
        <time>2014-06-06T08:22:04Z</time>
      </trkpt>
      <trkpt lat="47.27942" lon="-1.30214">
        <ele>38.49</ele>
        <time>2014-06-06T08:22:13Z</time>
      </trkpt>
      <trkpt lat="47.27924" lon="-1.30221">
        <ele>39.13</ele>
        <time>2014-06-06T08:22:18Z</time>
      </trkpt>
      <trkpt lat="47.27904" lon="-1.30231">
        <ele>39.74</ele>
        <time>2014-06-06T08:22:23Z</time>
      </trkpt>
      <trkpt lat="47.27887" lon="-1.30243">
        <ele>40.16</ele>
        <time>2014-06-06T08:22:27Z</time>
      </trkpt>
      <trkpt lat="47.27868" lon="-1.30258">
        <ele>40.61</ele>
        <time>2014-06-06T08:22:31Z</time>
      </trkpt>
      <trkpt lat="47.2785" lon="-1.30273">
        <ele>41.22</ele>
        <time>2014-06-06T08:22:35Z</time>
      </trkpt>
      <trkpt lat="47.27831" lon="-1.30288">
        <ele>41.88</ele>
        <time>2014-06-06T08:22:39Z</time>
      </trkpt>
      <trkpt lat="47.27814" lon="-1.30304">
        <ele>42.44</ele>
        <time>2014-06-06T08:22:43Z</time>
      </trkpt>
      <trkpt lat="47.27796" lon="-1.30319">
        <ele>43</ele>
        <time>2014-06-06T08:22:47Z</time>
      </trkpt>
      <trkpt lat="47.27779" lon="-1.30333">
        <ele>43.53</ele>
        <time>2014-06-06T08:22:51Z</time>
      </trkpt>
      <trkpt lat="47.27762" lon="-1.30348">
        <ele>44.05</ele>
        <time>2014-06-06T08:22:55Z</time>
      </trkpt>
      <trkpt lat="47.27742" lon="-1.30366">
        <ele>44.63</ele>
        <time>2014-06-06T08:22:59Z</time>
      </trkpt>
      <trkpt lat="47.27724" lon="-1.30381">
        <ele>45.14</ele>
        <time>2014-06-06T08:23:03Z</time>
      </trkpt>
      <trkpt lat="47.27707" lon="-1.30395">
        <ele>45.46</ele>
        <time>2014-06-06T08:23:06Z</time>
      </trkpt>
      <trkpt lat="47.27688" lon="-1.30406">
        <ele>45.86</ele>
        <time>2014-06-06T08:23:10Z</time>
      </trkpt>
      <trkpt lat="47.2767" lon="-1.30418">
        <ele>46.19</ele>
        <time>2014-06-06T08:23:14Z</time>
      </trkpt>
      <trkpt lat="47.27652" lon="-1.30431">
        <ele>46.65</ele>
        <time>2014-06-06T08:23:18Z</time>
      </trkpt>
      <trkpt lat="47.27631" lon="-1.3044">
        <ele>47.29</ele>
        <time>2014-06-06T08:23:22Z</time>
      </trkpt>
      <trkpt lat="47.27613" lon="-1.30448">
        <ele>47.92</ele>
        <time>2014-06-06T08:23:26Z</time>
      </trkpt>
      <trkpt lat="47.27595" lon="-1.30456">
        <ele>48.67</ele>
        <time>2014-06-06T08:23:30Z</time>
      </trkpt>
      <trkpt lat="47.2758" lon="-1.3047">
        <ele>49.52</ele>
        <time>2014-06-06T08:23:35Z</time>
      </trkpt>
      <trkpt lat="47.27569" lon="-1.30493">
        <ele>43.42</ele>
        <time>2014-06-06T08:25:41Z</time>
      </trkpt>
      <trkpt lat="47.27567" lon="-1.3052">
        <ele>42.91</ele>
        <time>2014-06-06T08:25:46Z</time>
      </trkpt>
      <trkpt lat="47.27563" lon="-1.30547">
        <ele>42.35</ele>
        <time>2014-06-06T08:25:51Z</time>
      </trkpt>
      <trkpt lat="47.27559" lon="-1.30574">
        <ele>41.68</ele>
        <time>2014-06-06T08:25:56Z</time>
      </trkpt>
      <trkpt lat="47.27554" lon="-1.30606">
        <ele>41.03</ele>
        <time>2014-06-06T08:26:01Z</time>
      </trkpt>
      <trkpt lat="47.27551" lon="-1.30632">
        <ele>40.66</ele>
        <time>2014-06-06T08:26:05Z</time>
      </trkpt>
      <trkpt lat="47.27545" lon="-1.30661">
        <ele>40.4</ele>
        <time>2014-06-06T08:26:09Z</time>
      </trkpt>
      <trkpt lat="47.27542" lon="-1.30692">
        <ele>39.72</ele>
        <time>2014-06-06T08:26:13Z</time>
      </trkpt>
      <trkpt lat="47.27537" lon="-1.30723">
        <ele>39.32</ele>
        <time>2014-06-06T08:26:17Z</time>
      </trkpt>
      <trkpt lat="47.27534" lon="-1.30751">
        <ele>39.19</ele>
        <time>2014-06-06T08:26:20Z</time>
      </trkpt>
      <trkpt lat="47.27529" lon="-1.30779">
        <ele>38.9</ele>
        <time>2014-06-06T08:26:23Z</time>
      </trkpt>
      <trkpt lat="47.27526" lon="-1.30806">
        <ele>38.28</ele>
        <time>2014-06-06T08:26:26Z</time>
      </trkpt>
      <trkpt lat="47.27522" lon="-1.30832">
        <ele>37.79</ele>
        <time>2014-06-06T08:26:29Z</time>
      </trkpt>
      <trkpt lat="47.27518" lon="-1.30864">
        <ele>37.13</ele>
        <time>2014-06-06T08:26:33Z</time>
      </trkpt>
      <trkpt lat="47.27514" lon="-1.30896">
        <ele>36.58</ele>
        <time>2014-06-06T08:26:37Z</time>
      </trkpt>
      <trkpt lat="47.27509" lon="-1.30927">
        <ele>35.98</ele>
        <time>2014-06-06T08:26:41Z</time>
      </trkpt>
      <trkpt lat="47.27502" lon="-1.30956">
        <ele>35.34</ele>
        <time>2014-06-06T08:26:45Z</time>
      </trkpt>
      <trkpt lat="47.27495" lon="-1.3098">
        <ele>34.7</ele>
        <time>2014-06-06T08:26:49Z</time>
      </trkpt>
      <trkpt lat="47.27483" lon="-1.31007">
        <ele>33.58</ele>
        <time>2014-06-06T08:26:54Z</time>
      </trkpt>
      <trkpt lat="47.27471" lon="-1.31032">
        <ele>32.65</ele>
        <time>2014-06-06T08:26:59Z</time>
      </trkpt>
      <trkpt lat="47.27458" lon="-1.31057">
        <ele>31.58</ele>
        <time>2014-06-06T08:27:04Z</time>
      </trkpt>
      <trkpt lat="47.27445" lon="-1.31083">
        <ele>30.73</ele>
        <time>2014-06-06T08:27:09Z</time>
      </trkpt>
      <trkpt lat="47.27434" lon="-1.31109">
        <ele>29.76</ele>
        <time>2014-06-06T08:27:14Z</time>
      </trkpt>
      <trkpt lat="47.2742" lon="-1.31137">
        <ele>28.98</ele>
        <time>2014-06-06T08:27:19Z</time>
      </trkpt>
      <trkpt lat="47.27409" lon="-1.31161">
        <ele>28.25</ele>
        <time>2014-06-06T08:27:23Z</time>
      </trkpt>
      <trkpt lat="47.27399" lon="-1.31184">
        <ele>27.46</ele>
        <time>2014-06-06T08:27:27Z</time>
      </trkpt>
      <trkpt lat="47.27388" lon="-1.31209">
        <ele>26.59</ele>
        <time>2014-06-06T08:27:31Z</time>
      </trkpt>
      <trkpt lat="47.27377" lon="-1.31235">
        <ele>25.67</ele>
        <time>2014-06-06T08:27:36Z</time>
      </trkpt>
      <trkpt lat="47.27388" lon="-1.31211">
        <ele>22.36</ele>
        <time>2014-06-06T08:27:48Z</time>
      </trkpt>
      <trkpt lat="47.27407" lon="-1.31211">
        <ele>20.84</ele>
        <time>2014-06-06T08:27:55Z</time>
      </trkpt>
      <trkpt lat="47.27424" lon="-1.31233">
        <ele>19.81</ele>
        <time>2014-06-06T08:28:00Z</time>
      </trkpt>
      <trkpt lat="47.27437" lon="-1.31258">
        <ele>18.97</ele>
        <time>2014-06-06T08:28:04Z</time>
      </trkpt>
      <trkpt lat="47.2745" lon="-1.31284">
        <ele>18.07</ele>
        <time>2014-06-06T08:28:08Z</time>
      </trkpt>
      <trkpt lat="47.27463" lon="-1.31314">
        <ele>17.26</ele>
        <time>2014-06-06T08:28:12Z</time>
      </trkpt>
      <trkpt lat="47.27474" lon="-1.31338">
        <ele>16.59</ele>
        <time>2014-06-06T08:28:15Z</time>
      </trkpt>
      <trkpt lat="47.27485" lon="-1.3136">
        <ele>15.97</ele>
        <time>2014-06-06T08:28:18Z</time>
      </trkpt>
      <trkpt lat="47.27497" lon="-1.31381">
        <ele>15.36</ele>
        <time>2014-06-06T08:28:21Z</time>
      </trkpt>
      <trkpt lat="47.27513" lon="-1.31402">
        <ele>14.56</ele>
        <time>2014-06-06T08:28:25Z</time>
      </trkpt>
      <trkpt lat="47.27528" lon="-1.31423">
        <ele>13.76</ele>
        <time>2014-06-06T08:28:29Z</time>
      </trkpt>
      <trkpt lat="47.27537" lon="-1.31453">
        <ele>13.09</ele>
        <time>2014-06-06T08:28:32Z</time>
      </trkpt>
      <trkpt lat="47.27547" lon="-1.31478">
        <ele>12.38</ele>
        <time>2014-06-06T08:28:35Z</time>
      </trkpt>
      <trkpt lat="47.27557" lon="-1.31504">
        <ele>11.69</ele>
        <time>2014-06-06T08:28:38Z</time>
      </trkpt>
      <trkpt lat="47.27569" lon="-1.3153">
        <ele>11.15</ele>
        <time>2014-06-06T08:28:41Z</time>
      </trkpt>
      <trkpt lat="47.27579" lon="-1.31555">
        <ele>10.64</ele>
        <time>2014-06-06T08:28:44Z</time>
      </trkpt>
      <trkpt lat="47.2759" lon="-1.31578">
        <ele>10.06</ele>
        <time>2014-06-06T08:28:47Z</time>
      </trkpt>
      <trkpt lat="47.27601" lon="-1.31599">
        <ele>9.55</ele>
        <time>2014-06-06T08:28:50Z</time>
      </trkpt>
      <trkpt lat="47.27614" lon="-1.31627">
        <ele>8.71</ele>
        <time>2014-06-06T08:28:54Z</time>
      </trkpt>
      <trkpt lat="47.27625" lon="-1.31652">
        <ele>7.27</ele>
        <time>2014-06-06T08:29:00Z</time>
      </trkpt>
      <trkpt lat="47.27636" lon="-1.31673">
        <ele>6.44</ele>
        <time>2014-06-06T08:29:04Z</time>
      </trkpt>
      <trkpt lat="47.27648" lon="-1.31696">
        <ele>5.5</ele>
        <time>2014-06-06T08:29:08Z</time>
      </trkpt>
      <trkpt lat="47.27659" lon="-1.3172">
        <ele>4.52</ele>
        <time>2014-06-06T08:29:12Z</time>
      </trkpt>
      <trkpt lat="47.27671" lon="-1.31746">
        <ele>3.72</ele>
        <time>2014-06-06T08:29:16Z</time>
      </trkpt>
      <trkpt lat="47.27685" lon="-1.3177">
        <ele>3.1</ele>
        <time>2014-06-06T08:29:20Z</time>
      </trkpt>
      <trkpt lat="47.27697" lon="-1.31793">
        <ele>2.66</ele>
        <time>2014-06-06T08:29:24Z</time>
      </trkpt>
      <trkpt lat="47.27709" lon="-1.31817">
        <ele>2.12</ele>
        <time>2014-06-06T08:29:28Z</time>
      </trkpt>
      <trkpt lat="47.27721" lon="-1.31843">
        <ele>1.44</ele>
        <time>2014-06-06T08:29:33Z</time>
      </trkpt>
      <trkpt lat="47.27735" lon="-1.31869">
        <ele>0.63</ele>
        <time>2014-06-06T08:29:38Z</time>
      </trkpt>
      <trkpt lat="47.27748" lon="-1.31896">
        <ele>-0.12</ele>
        <time>2014-06-06T08:29:43Z</time>
      </trkpt>
      <trkpt lat="47.27759" lon="-1.31922">
        <ele>-0.74</ele>
        <time>2014-06-06T08:29:47Z</time>
      </trkpt>
      <trkpt lat="47.2777" lon="-1.31949">
        <ele>-1.32</ele>
        <time>2014-06-06T08:29:51Z</time>
      </trkpt>
      <trkpt lat="47.27781" lon="-1.31975">
        <ele>-1.6</ele>
        <time>2014-06-06T08:29:55Z</time>
      </trkpt>
      <trkpt lat="47.27792" lon="-1.31997">
        <ele>-2.25</ele>
        <time>2014-06-06T08:29:59Z</time>
      </trkpt>
      <trkpt lat="47.27808" lon="-1.31981">
        <ele>-3.61</ele>
        <time>2014-06-06T08:30:09Z</time>
      </trkpt>
      <trkpt lat="47.27818" lon="-1.31957">
        <ele>-3.95</ele>
        <time>2014-06-06T08:30:16Z</time>
      </trkpt>
      <trkpt lat="47.27831" lon="-1.31934">
        <ele>-3.63</ele>
        <time>2014-06-06T08:30:22Z</time>
      </trkpt>
      <trkpt lat="47.27843" lon="-1.31911">
        <ele>-3.21</ele>
        <time>2014-06-06T08:30:27Z</time>
      </trkpt>
      <trkpt lat="47.27856" lon="-1.31891">
        <ele>-2.63</ele>
        <time>2014-06-06T08:30:32Z</time>
      </trkpt>
      <trkpt lat="47.27874" lon="-1.3187">
        <ele>-2.03</ele>
        <time>2014-06-06T08:30:38Z</time>
      </trkpt>
      <trkpt lat="47.27893" lon="-1.31855">
        <ele>-2.17</ele>
        <time>2014-06-06T08:30:44Z</time>
      </trkpt>
      <trkpt lat="47.27911" lon="-1.31843">
        <ele>-1.65</ele>
        <time>2014-06-06T08:30:49Z</time>
      </trkpt>
      <trkpt lat="47.2793" lon="-1.31832">
        <ele>-0.38</ele>
        <time>2014-06-06T08:30:55Z</time>
      </trkpt>
      <trkpt lat="47.27949" lon="-1.31822">
        <ele>0.54</ele>
        <time>2014-06-06T08:31:01Z</time>
      </trkpt>
      <trkpt lat="47.27967" lon="-1.31808">
        <ele>0.88</ele>
        <time>2014-06-06T08:31:07Z</time>
      </trkpt>
      <trkpt lat="47.27985" lon="-1.31794">
        <ele>1.14</ele>
        <time>2014-06-06T08:31:12Z</time>
      </trkpt>
      <trkpt lat="47.28001" lon="-1.31782">
        <ele>1.25</ele>
        <time>2014-06-06T08:31:16Z</time>
      </trkpt>
      <trkpt lat="47.28023" lon="-1.31768">
        <ele>1.83</ele>
        <time>2014-06-06T08:31:22Z</time>
      </trkpt>
      <trkpt lat="47.28039" lon="-1.31758">
        <ele>2.39</ele>
        <time>2014-06-06T08:31:27Z</time>
      </trkpt>
      <trkpt lat="47.28059" lon="-1.31747">
        <ele>2.91</ele>
        <time>2014-06-06T08:31:32Z</time>
      </trkpt>
      <trkpt lat="47.28079" lon="-1.3174">
        <ele>3.8</ele>
        <time>2014-06-06T08:31:38Z</time>
      </trkpt>
      <trkpt lat="47.281" lon="-1.3173">
        <ele>4.22</ele>
        <time>2014-06-06T08:31:44Z</time>
      </trkpt>
      <trkpt lat="47.28118" lon="-1.31716">
        <ele>4.98</ele>
        <time>2014-06-06T08:31:49Z</time>
      </trkpt>
      <trkpt lat="47.28135" lon="-1.31706">
        <ele>5.99</ele>
        <time>2014-06-06T08:31:54Z</time>
      </trkpt>
      <trkpt lat="47.28152" lon="-1.31695">
        <ele>6.88</ele>
        <time>2014-06-06T08:31:58Z</time>
      </trkpt>
      <trkpt lat="47.28171" lon="-1.31681">
        <ele>7.43</ele>
        <time>2014-06-06T08:32:02Z</time>
      </trkpt>
      <trkpt lat="47.28188" lon="-1.31667">
        <ele>7.93</ele>
        <time>2014-06-06T08:32:06Z</time>
      </trkpt>
      <trkpt lat="47.28204" lon="-1.31654">
        <ele>8.67</ele>
        <time>2014-06-06T08:32:10Z</time>
      </trkpt>
      <trkpt lat="47.2822" lon="-1.31638">
        <ele>9.17</ele>
        <time>2014-06-06T08:32:14Z</time>
      </trkpt>
      <trkpt lat="47.28235" lon="-1.31622">
        <ele>9.56</ele>
        <time>2014-06-06T08:32:18Z</time>
      </trkpt>
      <trkpt lat="47.28255" lon="-1.31616">
        <ele>10.34</ele>
        <time>2014-06-06T08:32:23Z</time>
      </trkpt>
      <trkpt lat="47.28275" lon="-1.31622">
        <ele>10.77</ele>
        <time>2014-06-06T08:32:27Z</time>
      </trkpt>
      <trkpt lat="47.28297" lon="-1.31627">
        <ele>11.33</ele>
        <time>2014-06-06T08:32:32Z</time>
      </trkpt>
      <trkpt lat="47.28317" lon="-1.31633">
        <ele>12.75</ele>
        <time>2014-06-06T08:32:37Z</time>
      </trkpt>
      <trkpt lat="47.28336" lon="-1.31641">
        <ele>13.7</ele>
        <time>2014-06-06T08:32:42Z</time>
      </trkpt>
      <trkpt lat="47.28355" lon="-1.3165">
        <ele>14.46</ele>
        <time>2014-06-06T08:32:46Z</time>
      </trkpt>
      <trkpt lat="47.28376" lon="-1.31664">
        <ele>15.28</ele>
        <time>2014-06-06T08:32:51Z</time>
      </trkpt>
      <trkpt lat="47.28393" lon="-1.31677">
        <ele>15.88</ele>
        <time>2014-06-06T08:32:55Z</time>
      </trkpt>
      <trkpt lat="47.28409" lon="-1.31692">
        <ele>16.36</ele>
        <time>2014-06-06T08:32:59Z</time>
      </trkpt>
      <trkpt lat="47.28424" lon="-1.31709">
        <ele>16.86</ele>
        <time>2014-06-06T08:33:03Z</time>
      </trkpt>
      <trkpt lat="47.28443" lon="-1.31708">
        <ele>18.1</ele>
        <time>2014-06-06T08:33:12Z</time>
      </trkpt>
      <trkpt lat="47.28453" lon="-1.3168">
        <ele>19.12</ele>
        <time>2014-06-06T08:33:18Z</time>
      </trkpt>
      <trkpt lat="47.28465" lon="-1.31654">
        <ele>19.57</ele>
        <time>2014-06-06T08:33:23Z</time>
      </trkpt>
      <trkpt lat="47.28478" lon="-1.3163">
        <ele>19.71</ele>
        <time>2014-06-06T08:33:27Z</time>
      </trkpt>
      <trkpt lat="47.28493" lon="-1.31605">
        <ele>19.63</ele>
        <time>2014-06-06T08:33:31Z</time>
      </trkpt>
      <trkpt lat="47.28508" lon="-1.31584">
        <ele>19.82</ele>
        <time>2014-06-06T08:33:35Z</time>
      </trkpt>
      <trkpt lat="47.28521" lon="-1.31564">
        <ele>20.16</ele>
        <time>2014-06-06T08:33:39Z</time>
      </trkpt>
      <trkpt lat="47.28534" lon="-1.31541">
        <ele>20.34</ele>
        <time>2014-06-06T08:33:43Z</time>
      </trkpt>
      <trkpt lat="47.28544" lon="-1.31517">
        <ele>20.44</ele>
        <time>2014-06-06T08:33:47Z</time>
      </trkpt>
      <trkpt lat="47.28558" lon="-1.31492">
        <ele>20.67</ele>
        <time>2014-06-06T08:33:51Z</time>
      </trkpt>
      <trkpt lat="47.28569" lon="-1.31469">
        <ele>20.94</ele>
        <time>2014-06-06T08:33:55Z</time>
      </trkpt>
      <trkpt lat="47.2858" lon="-1.31446">
        <ele>21.1</ele>
        <time>2014-06-06T08:33:59Z</time>
      </trkpt>
      <trkpt lat="47.28592" lon="-1.31423">
        <ele>21.16</ele>
        <time>2014-06-06T08:34:03Z</time>
      </trkpt>
      <trkpt lat="47.28605" lon="-1.314">
        <ele>20.95</ele>
        <time>2014-06-06T08:34:07Z</time>
      </trkpt>
      <trkpt lat="47.28618" lon="-1.31375">
        <ele>20.74</ele>
        <time>2014-06-06T08:34:11Z</time>
      </trkpt>
      <trkpt lat="47.28632" lon="-1.31352">
        <ele>20.57</ele>
        <time>2014-06-06T08:34:15Z</time>
      </trkpt>
      <trkpt lat="47.28651" lon="-1.31334">
        <ele>20.73</ele>
        <time>2014-06-06T08:34:19Z</time>
      </trkpt>
      <trkpt lat="47.2867" lon="-1.31327">
        <ele>21.07</ele>
        <time>2014-06-06T08:34:23Z</time>
      </trkpt>
      <trkpt lat="47.28688" lon="-1.31322">
        <ele>21.31</ele>
        <time>2014-06-06T08:34:26Z</time>
      </trkpt>
      <trkpt lat="47.2871" lon="-1.31316">
        <ele>20.96</ele>
        <time>2014-06-06T08:34:30Z</time>
      </trkpt>
      <trkpt lat="47.28731" lon="-1.31307">
        <ele>20.86</ele>
        <time>2014-06-06T08:34:34Z</time>
      </trkpt>
      <trkpt lat="47.28748" lon="-1.31297">
        <ele>20.94</ele>
        <time>2014-06-06T08:34:38Z</time>
      </trkpt>
      <trkpt lat="47.28765" lon="-1.31287">
        <ele>20.96</ele>
        <time>2014-06-06T08:34:41Z</time>
      </trkpt>
      <trkpt lat="47.28787" lon="-1.31277">
        <ele>21.05</ele>
        <time>2014-06-06T08:34:45Z</time>
      </trkpt>
      <trkpt lat="47.28805" lon="-1.3127">
        <ele>20.92</ele>
        <time>2014-06-06T08:34:48Z</time>
      </trkpt>
      <trkpt lat="47.28824" lon="-1.3126">
        <ele>20.77</ele>
        <time>2014-06-06T08:34:52Z</time>
      </trkpt>
      <trkpt lat="47.28842" lon="-1.31257">
        <ele>20.42</ele>
        <time>2014-06-06T08:34:58Z</time>
      </trkpt>
      <trkpt lat="47.2886" lon="-1.31252">
        <ele>20.36</ele>
        <time>2014-06-06T08:35:03Z</time>
      </trkpt>
      <trkpt lat="47.28882" lon="-1.31246">
        <ele>20.3</ele>
        <time>2014-06-06T08:35:08Z</time>
      </trkpt>
      <trkpt lat="47.28901" lon="-1.3124">
        <ele>20.11</ele>
        <time>2014-06-06T08:35:12Z</time>
      </trkpt>
      <trkpt lat="47.2892" lon="-1.31233">
        <ele>19.67</ele>
        <time>2014-06-06T08:35:16Z</time>
      </trkpt>
      <trkpt lat="47.28939" lon="-1.31228">
        <ele>19.52</ele>
        <time>2014-06-06T08:35:20Z</time>
      </trkpt>
      <trkpt lat="47.28959" lon="-1.31222">
        <ele>19.63</ele>
        <time>2014-06-06T08:35:24Z</time>
      </trkpt>
      <trkpt lat="47.28977" lon="-1.31215">
        <ele>19.13</ele>
        <time>2014-06-06T08:35:28Z</time>
      </trkpt>
      <trkpt lat="47.28999" lon="-1.31209">
        <ele>18.56</ele>
        <time>2014-06-06T08:35:33Z</time>
      </trkpt>
      <trkpt lat="47.29018" lon="-1.31202">
        <ele>18.84</ele>
        <time>2014-06-06T08:35:37Z</time>
      </trkpt>
      <trkpt lat="47.29035" lon="-1.31192">
        <ele>19.28</ele>
        <time>2014-06-06T08:35:41Z</time>
      </trkpt>
      <trkpt lat="47.29052" lon="-1.31173">
        <ele>18.24</ele>
        <time>2014-06-06T08:35:46Z</time>
      </trkpt>
      <trkpt lat="47.29067" lon="-1.31157">
        <ele>17.4</ele>
        <time>2014-06-06T08:35:51Z</time>
      </trkpt>
      <trkpt lat="47.29082" lon="-1.31137">
        <ele>16.98</ele>
        <time>2014-06-06T08:35:56Z</time>
      </trkpt>
      <trkpt lat="47.29095" lon="-1.31114">
        <ele>17.37</ele>
        <time>2014-06-06T08:36:01Z</time>
      </trkpt>
      <trkpt lat="47.2911" lon="-1.31097">
        <ele>18.04</ele>
        <time>2014-06-06T08:36:05Z</time>
      </trkpt>
      <trkpt lat="47.29129" lon="-1.3108">
        <ele>18.42</ele>
        <time>2014-06-06T08:36:10Z</time>
      </trkpt>
      <trkpt lat="47.29144" lon="-1.31064">
        <ele>18.41</ele>
        <time>2014-06-06T08:36:15Z</time>
      </trkpt>
      <trkpt lat="47.29157" lon="-1.31038">
        <ele>18.05</ele>
        <time>2014-06-06T08:36:20Z</time>
      </trkpt>
      <trkpt lat="47.2917" lon="-1.31014">
        <ele>17.75</ele>
        <time>2014-06-06T08:36:24Z</time>
      </trkpt>
      <trkpt lat="47.29178" lon="-1.30988">
        <ele>17.11</ele>
        <time>2014-06-06T08:36:28Z</time>
      </trkpt>
      <trkpt lat="47.29187" lon="-1.30962">
        <ele>16.36</ele>
        <time>2014-06-06T08:36:32Z</time>
      </trkpt>
      <trkpt lat="47.29195" lon="-1.30933">
        <ele>15.62</ele>
        <time>2014-06-06T08:36:36Z</time>
      </trkpt>
      <trkpt lat="47.29205" lon="-1.30903">
        <ele>14.95</ele>
        <time>2014-06-06T08:36:40Z</time>
      </trkpt>
      <trkpt lat="47.29196" lon="-1.30873">
        <ele>14.02</ele>
        <time>2014-06-06T08:36:45Z</time>
      </trkpt>
      <trkpt lat="47.2919" lon="-1.30843">
        <ele>13.18</ele>
        <time>2014-06-06T08:36:49Z</time>
      </trkpt>
      <trkpt lat="47.29186" lon="-1.30808">
        <ele>12.44</ele>
        <time>2014-06-06T08:36:53Z</time>
      </trkpt>
      <trkpt lat="47.29182" lon="-1.30774">
        <ele>11.75</ele>
        <time>2014-06-06T08:36:57Z</time>
      </trkpt>
      <trkpt lat="47.2918" lon="-1.30739">
        <ele>11.04</ele>
        <time>2014-06-06T08:37:01Z</time>
      </trkpt>
      <trkpt lat="47.29176" lon="-1.30705">
        <ele>10.4</ele>
        <time>2014-06-06T08:37:05Z</time>
      </trkpt>
      <trkpt lat="47.29173" lon="-1.30678">
        <ele>9.93</ele>
        <time>2014-06-06T08:37:08Z</time>
      </trkpt>
      <trkpt lat="47.29173" lon="-1.30645">
        <ele>9.42</ele>
        <time>2014-06-06T08:37:12Z</time>
      </trkpt>
      <trkpt lat="47.29173" lon="-1.30611">
        <ele>9.23</ele>
        <time>2014-06-06T08:37:16Z</time>
      </trkpt>
      <trkpt lat="47.29168" lon="-1.30581">
        <ele>9.02</ele>
        <time>2014-06-06T08:37:20Z</time>
      </trkpt>
      <trkpt lat="47.29171" lon="-1.30551">
        <ele>8.28</ele>
        <time>2014-06-06T08:37:25Z</time>
      </trkpt>
      <trkpt lat="47.29174" lon="-1.30522">
        <ele>7.79</ele>
        <time>2014-06-06T08:37:29Z</time>
      </trkpt>
      <trkpt lat="47.29176" lon="-1.30491">
        <ele>7.05</ele>
        <time>2014-06-06T08:37:33Z</time>
      </trkpt>
      <trkpt lat="47.29169" lon="-1.30456">
        <ele>5.97</ele>
        <time>2014-06-06T08:37:37Z</time>
      </trkpt>
      <trkpt lat="47.29162" lon="-1.30428">
        <ele>5.29</ele>
        <time>2014-06-06T08:37:40Z</time>
      </trkpt>
      <trkpt lat="47.29157" lon="-1.30402">
        <ele>4.06</ele>
        <time>2014-06-06T08:37:44Z</time>
      </trkpt>
      <trkpt lat="47.29156" lon="-1.30365">
        <ele>3.04</ele>
        <time>2014-06-06T08:37:49Z</time>
      </trkpt>
      <trkpt lat="47.29155" lon="-1.30337">
        <ele>2.17</ele>
        <time>2014-06-06T08:37:53Z</time>
      </trkpt>
      <trkpt lat="47.29176" lon="-1.30325">
        <ele>0.88</ele>
        <time>2014-06-06T08:37:58Z</time>
      </trkpt>
      <trkpt lat="47.29193" lon="-1.30316">
        <ele>-0.2</ele>
        <time>2014-06-06T08:38:02Z</time>
      </trkpt>
      <trkpt lat="47.29211" lon="-1.30304">
        <ele>-1.22</ele>
        <time>2014-06-06T08:38:06Z</time>
      </trkpt>
      <trkpt lat="47.29226" lon="-1.30285">
        <ele>-2.19</ele>
        <time>2014-06-06T08:38:11Z</time>
      </trkpt>
      <trkpt lat="47.29239" lon="-1.30259">
        <ele>-3.93</ele>
        <time>2014-06-06T08:38:16Z</time>
      </trkpt>
      <trkpt lat="47.29255" lon="-1.30237">
        <ele>-5.47</ele>
        <time>2014-06-06T08:38:21Z</time>
      </trkpt>
      <trkpt lat="47.29267" lon="-1.30211">
        <ele>-7.01</ele>
        <time>2014-06-06T08:38:26Z</time>
      </trkpt>
      <trkpt lat="47.29278" lon="-1.30189">
        <ele>-8.35</ele>
        <time>2014-06-06T08:38:31Z</time>
      </trkpt>
      <trkpt lat="47.29278" lon="-1.3016">
        <ele>-10.68</ele>
        <time>2014-06-06T08:38:40Z</time>
      </trkpt>
      <trkpt lat="47.29268" lon="-1.30136">
        <ele>-14.92</ele>
        <time>2014-06-06T08:39:09Z</time>
      </trkpt>
      <trkpt lat="47.29252" lon="-1.30121">
        <ele>-16.58</ele>
        <time>2014-06-06T08:39:32Z</time>
      </trkpt>
      <trkpt lat="47.29241" lon="-1.301">
        <ele>-18.1</ele>
        <time>2014-06-06T08:39:53Z</time>
      </trkpt>
      <trkpt lat="47.29225" lon="-1.30111">
        <ele>-18.21</ele>
        <time>2014-06-06T08:40:12Z</time>
      </trkpt>
      <trkpt lat="47.29206" lon="-1.30117">
        <ele>-16.49</ele>
        <time>2014-06-06T08:40:22Z</time>
      </trkpt>
      <trkpt lat="47.29188" lon="-1.30121">
        <ele>-14.66</ele>
        <time>2014-06-06T08:40:31Z</time>
      </trkpt>
      <trkpt lat="47.29169" lon="-1.3012">
        <ele>-11.95</ele>
        <time>2014-06-06T08:40:39Z</time>
      </trkpt>
      <trkpt lat="47.29151" lon="-1.30116">
        <ele>-3.55</ele>
        <time>2014-06-06T08:41:32Z</time>
      </trkpt>
      <trkpt lat="47.29137" lon="-1.30133">
        <ele>-2.53</ele>
        <time>2014-06-06T08:41:42Z</time>
      </trkpt>
      <trkpt lat="47.29119" lon="-1.30133">
        <ele>4.7</ele>
        <time>2014-06-06T08:45:09Z</time>
      </trkpt>
      <trkpt lat="47.29116" lon="-1.3016">
        <ele>11.87</ele>
        <time>2014-06-06T08:45:56Z</time>
      </trkpt>
      <trkpt lat="47.29122" lon="-1.30132">
        <ele>15.56</ele>
        <time>2014-06-06T08:46:46Z</time>
      </trkpt>
      <trkpt lat="47.29117" lon="-1.30105">
        <ele>6.36</ele>
        <time>2014-06-06T08:53:51Z</time>
      </trkpt>
      <trkpt lat="47.29102" lon="-1.30087">
        <ele>6.76</ele>
        <time>2014-06-06T08:54:03Z</time>
      </trkpt>
      <trkpt lat="47.29088" lon="-1.30069">
        <ele>8.57</ele>
        <time>2014-06-06T08:54:10Z</time>
      </trkpt>
      <trkpt lat="47.29076" lon="-1.30048">
        <ele>11.12</ele>
        <time>2014-06-06T08:54:20Z</time>
      </trkpt>
      <trkpt lat="47.29064" lon="-1.30028">
        <ele>13.93</ele>
        <time>2014-06-06T08:54:33Z</time>
      </trkpt>
      <trkpt lat="47.29056" lon="-1.30002">
        <ele>15.17</ele>
        <time>2014-06-06T08:54:45Z</time>
      </trkpt>
      <trkpt lat="47.29047" lon="-1.29977">
        <ele>16.03</ele>
        <time>2014-06-06T08:54:52Z</time>
      </trkpt>
      <trkpt lat="47.29037" lon="-1.2995">
        <ele>15.91</ele>
        <time>2014-06-06T08:55:00Z</time>
      </trkpt>
      <trkpt lat="47.29032" lon="-1.29924">
        <ele>16.65</ele>
        <time>2014-06-06T08:55:06Z</time>
      </trkpt>
      <trkpt lat="47.2904" lon="-1.29899">
        <ele>16.76</ele>
        <time>2014-06-06T08:55:15Z</time>
      </trkpt>
      <trkpt lat="47.29056" lon="-1.29883">
        <ele>17</ele>
        <time>2014-06-06T08:55:21Z</time>
      </trkpt>
      <trkpt lat="47.29066" lon="-1.29857">
        <ele>17.08</ele>
        <time>2014-06-06T08:55:27Z</time>
      </trkpt>
      <trkpt lat="47.29074" lon="-1.29831">
        <ele>16.95</ele>
        <time>2014-06-06T08:55:33Z</time>
      </trkpt>
      <trkpt lat="47.29085" lon="-1.29804">
        <ele>16.82</ele>
        <time>2014-06-06T08:55:39Z</time>
      </trkpt>
      <trkpt lat="47.29097" lon="-1.2978">
        <ele>16.44</ele>
        <time>2014-06-06T08:55:45Z</time>
      </trkpt>
      <trkpt lat="47.29113" lon="-1.29759">
        <ele>16.51</ele>
        <time>2014-06-06T08:55:51Z</time>
      </trkpt>
      <trkpt lat="47.29126" lon="-1.2974">
        <ele>16.27</ele>
        <time>2014-06-06T08:55:56Z</time>
      </trkpt>
      <trkpt lat="47.29142" lon="-1.29722">
        <ele>16</ele>
        <time>2014-06-06T08:56:01Z</time>
      </trkpt>
      <trkpt lat="47.29159" lon="-1.29707">
        <ele>15.57</ele>
        <time>2014-06-06T08:56:06Z</time>
      </trkpt>
      <trkpt lat="47.29177" lon="-1.29688">
        <ele>14.78</ele>
        <time>2014-06-06T08:56:11Z</time>
      </trkpt>
      <trkpt lat="47.29194" lon="-1.29669">
        <ele>14.36</ele>
        <time>2014-06-06T08:56:16Z</time>
      </trkpt>
      <trkpt lat="47.29208" lon="-1.29649">
        <ele>14.02</ele>
        <time>2014-06-06T08:56:21Z</time>
      </trkpt>
      <trkpt lat="47.29224" lon="-1.29631">
        <ele>13.78</ele>
        <time>2014-06-06T08:56:26Z</time>
      </trkpt>
      <trkpt lat="47.2924" lon="-1.29615">
        <ele>13.63</ele>
        <time>2014-06-06T08:56:30Z</time>
      </trkpt>
      <trkpt lat="47.29256" lon="-1.296">
        <ele>13.39</ele>
        <time>2014-06-06T08:56:34Z</time>
      </trkpt>
      <trkpt lat="47.29273" lon="-1.29587">
        <ele>12.8</ele>
        <time>2014-06-06T08:56:38Z</time>
      </trkpt>
      <trkpt lat="47.29293" lon="-1.29573">
        <ele>12.69</ele>
        <time>2014-06-06T08:56:43Z</time>
      </trkpt>
      <trkpt lat="47.29312" lon="-1.29558">
        <ele>13.3</ele>
        <time>2014-06-06T08:56:48Z</time>
      </trkpt>
      <trkpt lat="47.29329" lon="-1.29546">
        <ele>13.45</ele>
        <time>2014-06-06T08:56:52Z</time>
      </trkpt>
      <trkpt lat="47.29348" lon="-1.29535">
        <ele>14.2</ele>
        <time>2014-06-06T08:56:57Z</time>
      </trkpt>
      <trkpt lat="47.29364" lon="-1.29515">
        <ele>16.36</ele>
        <time>2014-06-06T08:57:03Z</time>
      </trkpt>
      <trkpt lat="47.29377" lon="-1.29495">
        <ele>17.59</ele>
        <time>2014-06-06T08:57:08Z</time>
      </trkpt>
      <trkpt lat="47.29389" lon="-1.29471">
        <ele>18.97</ele>
        <time>2014-06-06T08:57:13Z</time>
      </trkpt>
      <trkpt lat="47.29396" lon="-1.29445">
        <ele>19.46</ele>
        <time>2014-06-06T08:57:18Z</time>
      </trkpt>
      <trkpt lat="47.29393" lon="-1.29416">
        <ele>19.35</ele>
        <time>2014-06-06T08:57:23Z</time>
      </trkpt>
      <trkpt lat="47.29384" lon="-1.29384">
        <ele>20.53</ele>
        <time>2014-06-06T08:57:28Z</time>
      </trkpt>
      <trkpt lat="47.29374" lon="-1.29356">
        <ele>22.18</ele>
        <time>2014-06-06T08:57:33Z</time>
      </trkpt>
      <trkpt lat="47.29364" lon="-1.29328">
        <ele>22.2</ele>
        <time>2014-06-06T08:57:38Z</time>
      </trkpt>
      <trkpt lat="47.29347" lon="-1.29314">
        <ele>20.84</ele>
        <time>2014-06-06T08:57:46Z</time>
      </trkpt>
      <trkpt lat="47.29326" lon="-1.29321">
        <ele>20.69</ele>
        <time>2014-06-06T08:57:52Z</time>
      </trkpt>
      <trkpt lat="47.29308" lon="-1.2933">
        <ele>20.33</ele>
        <time>2014-06-06T08:57:57Z</time>
      </trkpt>
      <trkpt lat="47.2929" lon="-1.29338">
        <ele>20.24</ele>
        <time>2014-06-06T08:58:02Z</time>
      </trkpt>
      <trkpt lat="47.29271" lon="-1.29348">
        <ele>20.55</ele>
        <time>2014-06-06T08:58:07Z</time>
      </trkpt>
      <trkpt lat="47.29251" lon="-1.29356">
        <ele>20.58</ele>
        <time>2014-06-06T08:58:12Z</time>
      </trkpt>
      <trkpt lat="47.2923" lon="-1.29364">
        <ele>20.79</ele>
        <time>2014-06-06T08:58:17Z</time>
      </trkpt>
      <trkpt lat="47.29207" lon="-1.29372">
        <ele>21.22</ele>
        <time>2014-06-06T08:58:22Z</time>
      </trkpt>
      <trkpt lat="47.29189" lon="-1.29375">
        <ele>21.93</ele>
        <time>2014-06-06T08:58:26Z</time>
      </trkpt>
      <trkpt lat="47.29169" lon="-1.29378">
        <ele>22.16</ele>
        <time>2014-06-06T08:58:30Z</time>
      </trkpt>
      <trkpt lat="47.29149" lon="-1.29381">
        <ele>22.67</ele>
        <time>2014-06-06T08:58:34Z</time>
      </trkpt>
      <trkpt lat="47.29127" lon="-1.29384">
        <ele>22.89</ele>
        <time>2014-06-06T08:58:38Z</time>
      </trkpt>
      <trkpt lat="47.29106" lon="-1.29387">
        <ele>22.94</ele>
        <time>2014-06-06T08:58:42Z</time>
      </trkpt>
      <trkpt lat="47.29084" lon="-1.2939">
        <ele>23.05</ele>
        <time>2014-06-06T08:58:46Z</time>
      </trkpt>
      <trkpt lat="47.29061" lon="-1.29396">
        <ele>23.32</ele>
        <time>2014-06-06T08:58:50Z</time>
      </trkpt>
      <trkpt lat="47.29043" lon="-1.29404">
        <ele>23.36</ele>
        <time>2014-06-06T08:58:53Z</time>
      </trkpt>
      <trkpt lat="47.29026" lon="-1.29412">
        <ele>23.36</ele>
        <time>2014-06-06T08:58:56Z</time>
      </trkpt>
      <trkpt lat="47.29009" lon="-1.29423">
        <ele>23.19</ele>
        <time>2014-06-06T08:58:59Z</time>
      </trkpt>
      <trkpt lat="47.28988" lon="-1.29437">
        <ele>23.05</ele>
        <time>2014-06-06T08:59:03Z</time>
      </trkpt>
      <trkpt lat="47.28968" lon="-1.29442">
        <ele>23.55</ele>
        <time>2014-06-06T08:59:08Z</time>
      </trkpt>
      <trkpt lat="47.28962" lon="-1.29415">
        <ele>23.69</ele>
        <time>2014-06-06T08:59:12Z</time>
      </trkpt>
      <trkpt lat="47.28957" lon="-1.29381">
        <ele>23.75</ele>
        <time>2014-06-06T08:59:16Z</time>
      </trkpt>
      <trkpt lat="47.28955" lon="-1.29344">
        <ele>23.19</ele>
        <time>2014-06-06T08:59:20Z</time>
      </trkpt>
      <trkpt lat="47.28948" lon="-1.29318">
        <ele>22.19</ele>
        <time>2014-06-06T08:59:23Z</time>
      </trkpt>
      <trkpt lat="47.28941" lon="-1.29289">
        <ele>21.6</ele>
        <time>2014-06-06T08:59:26Z</time>
      </trkpt>
      <trkpt lat="47.28932" lon="-1.29258">
        <ele>19.67</ele>
        <time>2014-06-06T08:59:29Z</time>
      </trkpt>
      <trkpt lat="47.28924" lon="-1.29225">
        <ele>17.15</ele>
        <time>2014-06-06T08:59:32Z</time>
      </trkpt>
      <trkpt lat="47.28915" lon="-1.29198">
        <ele>13.76</ele>
        <time>2014-06-06T08:59:36Z</time>
      </trkpt>
      <trkpt lat="47.28901" lon="-1.29179">
        <ele>7.26</ele>
        <time>2014-06-06T08:59:47Z</time>
      </trkpt>
      <trkpt lat="47.28883" lon="-1.29168">
        <ele>-0.41</ele>
        <time>2014-06-06T09:00:01Z</time>
      </trkpt>
      <trkpt lat="47.28877" lon="-1.29139">
        <ele>-4.33</ele>
        <time>2014-06-06T09:00:09Z</time>
      </trkpt>
      <trkpt lat="47.28875" lon="-1.29112">
        <ele>-7.71</ele>
        <time>2014-06-06T09:00:16Z</time>
      </trkpt>
      <trkpt lat="47.28886" lon="-1.2909">
        <ele>-11.68</ele>
        <time>2014-06-06T09:00:26Z</time>
      </trkpt>
      <trkpt lat="47.28901" lon="-1.29073">
        <ele>-15.72</ele>
        <time>2014-06-06T09:00:37Z</time>
      </trkpt>
      <trkpt lat="47.28895" lon="-1.29046">
        <ele>-15.68</ele>
        <time>2014-06-06T09:01:28Z</time>
      </trkpt>
      <trkpt lat="47.28902" lon="-1.29021">
        <ele>-10.22</ele>
        <time>2014-06-06T09:01:41Z</time>
      </trkpt>
      <trkpt lat="47.289" lon="-1.28992">
        <ele>-2.21</ele>
        <time>2014-06-06T09:02:00Z</time>
      </trkpt>
      <trkpt lat="47.2889" lon="-1.28967">
        <ele>2.33</ele>
        <time>2014-06-06T09:02:11Z</time>
      </trkpt>
      <trkpt lat="47.28879" lon="-1.28944">
        <ele>5.31</ele>
        <time>2014-06-06T09:02:19Z</time>
      </trkpt>
      <trkpt lat="47.28872" lon="-1.28919">
        <ele>9.04</ele>
        <time>2014-06-06T09:02:27Z</time>
      </trkpt>
      <trkpt lat="47.28865" lon="-1.28894">
        <ele>12.34</ele>
        <time>2014-06-06T09:02:34Z</time>
      </trkpt>
      <trkpt lat="47.28856" lon="-1.28871">
        <ele>13.14</ele>
        <time>2014-06-06T09:02:40Z</time>
      </trkpt>
      <trkpt lat="47.28847" lon="-1.28848">
        <ele>13.51</ele>
        <time>2014-06-06T09:02:45Z</time>
      </trkpt>
      <trkpt lat="47.28838" lon="-1.28823">
        <ele>14.39</ele>
        <time>2014-06-06T09:02:50Z</time>
      </trkpt>
      <trkpt lat="47.2883" lon="-1.28797">
        <ele>16.13</ele>
        <time>2014-06-06T09:02:55Z</time>
      </trkpt>
      <trkpt lat="47.2882" lon="-1.28773">
        <ele>17.17</ele>
        <time>2014-06-06T09:03:00Z</time>
      </trkpt>
      <trkpt lat="47.28813" lon="-1.28741">
        <ele>18.19</ele>
        <time>2014-06-06T09:03:06Z</time>
      </trkpt>
      <trkpt lat="47.28803" lon="-1.28719">
        <ele>17.23</ele>
        <time>2014-06-06T09:03:14Z</time>
      </trkpt>
      <trkpt lat="47.28784" lon="-1.28712">
        <ele>17.18</ele>
        <time>2014-06-06T09:03:24Z</time>
      </trkpt>
      <trkpt lat="47.28766" lon="-1.28704">
        <ele>17.36</ele>
        <time>2014-06-06T09:03:37Z</time>
      </trkpt>
      <trkpt lat="47.28751" lon="-1.28688">
        <ele>17.47</ele>
        <time>2014-06-06T09:03:46Z</time>
      </trkpt>
      <trkpt lat="47.28734" lon="-1.28672">
        <ele>18.35</ele>
        <time>2014-06-06T09:03:54Z</time>
      </trkpt>
      <trkpt lat="47.28717" lon="-1.28657">
        <ele>18.13</ele>
        <time>2014-06-06T09:04:01Z</time>
      </trkpt>
      <trkpt lat="47.28702" lon="-1.28643">
        <ele>17.69</ele>
        <time>2014-06-06T09:04:08Z</time>
      </trkpt>
      <trkpt lat="47.28683" lon="-1.28638">
        <ele>19.13</ele>
        <time>2014-06-06T09:04:14Z</time>
      </trkpt>
      <trkpt lat="47.28664" lon="-1.28631">
        <ele>19.75</ele>
        <time>2014-06-06T09:04:20Z</time>
      </trkpt>
      <trkpt lat="47.28644" lon="-1.28622">
        <ele>20.71</ele>
        <time>2014-06-06T09:04:26Z</time>
      </trkpt>
      <trkpt lat="47.28639" lon="-1.28597">
        <ele>23.08</ele>
        <time>2014-06-06T09:04:42Z</time>
      </trkpt>
      <trkpt lat="47.28654" lon="-1.28581">
        <ele>24.85</ele>
        <time>2014-06-06T09:04:50Z</time>
      </trkpt>
      <trkpt lat="47.28668" lon="-1.28564">
        <ele>26.1</ele>
        <time>2014-06-06T09:04:57Z</time>
      </trkpt>
      <trkpt lat="47.28681" lon="-1.28545">
        <ele>26.91</ele>
        <time>2014-06-06T09:05:03Z</time>
      </trkpt>
      <trkpt lat="47.28695" lon="-1.28526">
        <ele>27.23</ele>
        <time>2014-06-06T09:05:09Z</time>
      </trkpt>
      <trkpt lat="47.28709" lon="-1.28508">
        <ele>27.54</ele>
        <time>2014-06-06T09:05:15Z</time>
      </trkpt>
      <trkpt lat="47.28725" lon="-1.28494">
        <ele>27.05</ele>
        <time>2014-06-06T09:05:22Z</time>
      </trkpt>
      <trkpt lat="47.28709" lon="-1.28512">
        <ele>26.54</ele>
        <time>2014-06-06T09:05:30Z</time>
      </trkpt>
      <trkpt lat="47.28693" lon="-1.28531">
        <ele>25.97</ele>
        <time>2014-06-06T09:05:36Z</time>
      </trkpt>
      <trkpt lat="47.28678" lon="-1.28551">
        <ele>24.54</ele>
        <time>2014-06-06T09:05:41Z</time>
      </trkpt>
      <trkpt lat="47.28662" lon="-1.28571">
        <ele>24.16</ele>
        <time>2014-06-06T09:05:47Z</time>
      </trkpt>
      <trkpt lat="47.28647" lon="-1.28588">
        <ele>25.12</ele>
        <time>2014-06-06T09:05:53Z</time>
      </trkpt>
      <trkpt lat="47.28663" lon="-1.28569">
        <ele>26.8</ele>
        <time>2014-06-06T09:06:25Z</time>
      </trkpt>
      <trkpt lat="47.28678" lon="-1.28548">
        <ele>26.97</ele>
        <time>2014-06-06T09:06:32Z</time>
      </trkpt>
      <trkpt lat="47.28692" lon="-1.28528">
        <ele>27.1</ele>
        <time>2014-06-06T09:06:38Z</time>
      </trkpt>
      <trkpt lat="47.28696" lon="-1.285">
        <ele>26.75</ele>
        <time>2014-06-06T09:06:43Z</time>
      </trkpt>
      <trkpt lat="47.2869" lon="-1.28472">
        <ele>26.91</ele>
        <time>2014-06-06T09:06:46Z</time>
      </trkpt>
      <trkpt lat="47.28686" lon="-1.28444">
        <ele>26.81</ele>
        <time>2014-06-06T09:06:49Z</time>
      </trkpt>
      <trkpt lat="47.28682" lon="-1.28411">
        <ele>26.65</ele>
        <time>2014-06-06T09:06:53Z</time>
      </trkpt>
      <trkpt lat="47.28683" lon="-1.28381">
        <ele>26.4</ele>
        <time>2014-06-06T09:06:58Z</time>
      </trkpt>
      <trkpt lat="47.28702" lon="-1.2837">
        <ele>26.33</ele>
        <time>2014-06-06T09:07:02Z</time>
      </trkpt>
      <trkpt lat="47.28707" lon="-1.28341">
        <ele>26.09</ele>
        <time>2014-06-06T09:07:07Z</time>
      </trkpt>
      <trkpt lat="47.28708" lon="-1.28313">
        <ele>26.24</ele>
        <time>2014-06-06T09:07:12Z</time>
      </trkpt>
      <trkpt lat="47.28709" lon="-1.28282">
        <ele>26.63</ele>
        <time>2014-06-06T09:07:17Z</time>
      </trkpt>
      <trkpt lat="47.28708" lon="-1.28256">
        <ele>26.22</ele>
        <time>2014-06-06T09:07:21Z</time>
      </trkpt>
      <trkpt lat="47.28707" lon="-1.28224">
        <ele>25.23</ele>
        <time>2014-06-06T09:07:25Z</time>
      </trkpt>
      <trkpt lat="47.28706" lon="-1.28191">
        <ele>23.75</ele>
        <time>2014-06-06T09:07:29Z</time>
      </trkpt>
      <trkpt lat="47.28705" lon="-1.28159">
        <ele>22.81</ele>
        <time>2014-06-06T09:07:33Z</time>
      </trkpt>
      <trkpt lat="47.28706" lon="-1.28125">
        <ele>21.42</ele>
        <time>2014-06-06T09:07:37Z</time>
      </trkpt>
      <trkpt lat="47.28705" lon="-1.28094">
        <ele>19.27</ele>
        <time>2014-06-06T09:07:41Z</time>
      </trkpt>
      <trkpt lat="47.28704" lon="-1.28066">
        <ele>17.63</ele>
        <time>2014-06-06T09:07:45Z</time>
      </trkpt>
      <trkpt lat="47.28689" lon="-1.28046">
        <ele>15.26</ele>
        <time>2014-06-06T09:07:50Z</time>
      </trkpt>
      <trkpt lat="47.28668" lon="-1.28046">
        <ele>12.42</ele>
        <time>2014-06-06T09:07:58Z</time>
      </trkpt>
      <trkpt lat="47.2865" lon="-1.2805">
        <ele>12.81</ele>
        <time>2014-06-06T09:08:03Z</time>
      </trkpt>
      <trkpt lat="47.28629" lon="-1.2805">
        <ele>13.67</ele>
        <time>2014-06-06T09:08:08Z</time>
      </trkpt>
      <trkpt lat="47.28608" lon="-1.28055">
        <ele>14.6</ele>
        <time>2014-06-06T09:08:13Z</time>
      </trkpt>
      <trkpt lat="47.28587" lon="-1.28058">
        <ele>15.15</ele>
        <time>2014-06-06T09:08:18Z</time>
      </trkpt>
      <trkpt lat="47.28567" lon="-1.28067">
        <ele>15.93</ele>
        <time>2014-06-06T09:08:23Z</time>
      </trkpt>
      <trkpt lat="47.28556" lon="-1.28045">
        <ele>16.87</ele>
        <time>2014-06-06T09:08:36Z</time>
      </trkpt>
      <trkpt lat="47.28549" lon="-1.2802">
        <ele>16.44</ele>
        <time>2014-06-06T09:08:46Z</time>
      </trkpt>
      <trkpt lat="47.28552" lon="-1.28047">
        <ele>13.48</ele>
        <time>2014-06-06T09:09:52Z</time>
      </trkpt>
      <trkpt lat="47.28566" lon="-1.28065">
        <ele>15.46</ele>
        <time>2014-06-06T09:10:14Z</time>
      </trkpt>
      <trkpt lat="47.28549" lon="-1.28076">
        <ele>15.86</ele>
        <time>2014-06-06T09:10:36Z</time>
      </trkpt>
      <trkpt lat="47.28528" lon="-1.28086">
        <ele>16.02</ele>
        <time>2014-06-06T09:10:42Z</time>
      </trkpt>
      <trkpt lat="47.28512" lon="-1.28096">
        <ele>16.08</ele>
        <time>2014-06-06T09:10:47Z</time>
      </trkpt>
      <trkpt lat="47.28501" lon="-1.28118">
        <ele>15.42</ele>
        <time>2014-06-06T09:10:53Z</time>
      </trkpt>
      <trkpt lat="47.28493" lon="-1.28147">
        <ele>15.64</ele>
        <time>2014-06-06T09:11:00Z</time>
      </trkpt>
      <trkpt lat="47.2848" lon="-1.28168">
        <ele>15.41</ele>
        <time>2014-06-06T09:11:08Z</time>
      </trkpt>
      <trkpt lat="47.28484" lon="-1.28197">
        <ele>16.63</ele>
        <time>2014-06-06T09:11:18Z</time>
      </trkpt>
      <trkpt lat="47.28487" lon="-1.28224">
        <ele>18.32</ele>
        <time>2014-06-06T09:11:25Z</time>
      </trkpt>
      <trkpt lat="47.2849" lon="-1.28251">
        <ele>22.73</ele>
        <time>2014-06-06T09:11:33Z</time>
      </trkpt>
      <trkpt lat="47.28494" lon="-1.28279">
        <ele>25.82</ele>
        <time>2014-06-06T09:11:41Z</time>
      </trkpt>
      <trkpt lat="47.28501" lon="-1.28307">
        <ele>28.02</ele>
        <time>2014-06-06T09:11:48Z</time>
      </trkpt>
      <trkpt lat="47.28505" lon="-1.28334">
        <ele>30.57</ele>
        <time>2014-06-06T09:11:55Z</time>
      </trkpt>
      <trkpt lat="47.2849" lon="-1.28352">
        <ele>30.71</ele>
        <time>2014-06-06T09:12:06Z</time>
      </trkpt>
      <trkpt lat="47.28472" lon="-1.28365">
        <ele>30.08</ele>
        <time>2014-06-06T09:12:13Z</time>
      </trkpt>
      <trkpt lat="47.28455" lon="-1.28373">
        <ele>29.75</ele>
        <time>2014-06-06T09:12:19Z</time>
      </trkpt>
      <trkpt lat="47.28436" lon="-1.28375">
        <ele>28.21</ele>
        <time>2014-06-06T09:12:25Z</time>
      </trkpt>
      <trkpt lat="47.28416" lon="-1.28371">
        <ele>28.04</ele>
        <time>2014-06-06T09:12:30Z</time>
      </trkpt>
      <trkpt lat="47.28397" lon="-1.28368">
        <ele>28.12</ele>
        <time>2014-06-06T09:12:34Z</time>
      </trkpt>
      <trkpt lat="47.28375" lon="-1.28368">
        <ele>28.36</ele>
        <time>2014-06-06T09:12:38Z</time>
      </trkpt>
      <trkpt lat="47.28353" lon="-1.28373">
        <ele>28.62</ele>
        <time>2014-06-06T09:12:42Z</time>
      </trkpt>
      <trkpt lat="47.28332" lon="-1.2838">
        <ele>28.61</ele>
        <time>2014-06-06T09:12:46Z</time>
      </trkpt>
      <trkpt lat="47.28314" lon="-1.28386">
        <ele>28.79</ele>
        <time>2014-06-06T09:12:49Z</time>
      </trkpt>
      <trkpt lat="47.28295" lon="-1.28391">
        <ele>28.71</ele>
        <time>2014-06-06T09:12:53Z</time>
      </trkpt>
      <trkpt lat="47.28273" lon="-1.28395">
        <ele>28.48</ele>
        <time>2014-06-06T09:12:57Z</time>
      </trkpt>
      <trkpt lat="47.28252" lon="-1.28395">
        <ele>28.22</ele>
        <time>2014-06-06T09:13:01Z</time>
      </trkpt>
      <trkpt lat="47.28232" lon="-1.28395">
        <ele>27.91</ele>
        <time>2014-06-06T09:13:05Z</time>
      </trkpt>
      <trkpt lat="47.28214" lon="-1.28392">
        <ele>27.86</ele>
        <time>2014-06-06T09:13:09Z</time>
      </trkpt>
      <trkpt lat="47.28196" lon="-1.2839">
        <ele>28.12</ele>
        <time>2014-06-06T09:13:14Z</time>
      </trkpt>
      <trkpt lat="47.28177" lon="-1.28389">
        <ele>27.97</ele>
        <time>2014-06-06T09:13:19Z</time>
      </trkpt>
      <trkpt lat="47.28158" lon="-1.28393">
        <ele>27.7</ele>
        <time>2014-06-06T09:13:24Z</time>
      </trkpt>
      <trkpt lat="47.28137" lon="-1.284">
        <ele>27.66</ele>
        <time>2014-06-06T09:13:29Z</time>
      </trkpt>
      <trkpt lat="47.28118" lon="-1.28405">
        <ele>27.34</ele>
        <time>2014-06-06T09:13:34Z</time>
      </trkpt>
      <trkpt lat="47.28097" lon="-1.2841">
        <ele>27.21</ele>
        <time>2014-06-06T09:13:39Z</time>
      </trkpt>
      <trkpt lat="47.28077" lon="-1.28416">
        <ele>27.57</ele>
        <time>2014-06-06T09:13:43Z</time>
      </trkpt>
      <trkpt lat="47.28058" lon="-1.28423">
        <ele>27.59</ele>
        <time>2014-06-06T09:13:47Z</time>
      </trkpt>
      <trkpt lat="47.28039" lon="-1.28429">
        <ele>27.64</ele>
        <time>2014-06-06T09:13:51Z</time>
      </trkpt>
      <trkpt lat="47.28017" lon="-1.28434">
        <ele>27.08</ele>
        <time>2014-06-06T09:13:55Z</time>
      </trkpt>
      <trkpt lat="47.27995" lon="-1.28433">
        <ele>25.83</ele>
        <time>2014-06-06T09:13:59Z</time>
      </trkpt>
      <trkpt lat="47.27973" lon="-1.28428">
        <ele>25.27</ele>
        <time>2014-06-06T09:14:03Z</time>
      </trkpt>
      <trkpt lat="47.27952" lon="-1.28421">
        <ele>24.86</ele>
        <time>2014-06-06T09:14:07Z</time>
      </trkpt>
      <trkpt lat="47.27931" lon="-1.28414">
        <ele>24.48</ele>
        <time>2014-06-06T09:14:11Z</time>
      </trkpt>
      <trkpt lat="47.27909" lon="-1.28412">
        <ele>24</ele>
        <time>2014-06-06T09:14:15Z</time>
      </trkpt>
      <trkpt lat="47.27888" lon="-1.2842">
        <ele>23.08</ele>
        <time>2014-06-06T09:14:19Z</time>
      </trkpt>
      <trkpt lat="47.2787" lon="-1.28439">
        <ele>22.34</ele>
        <time>2014-06-06T09:14:23Z</time>
      </trkpt>
      <trkpt lat="47.27849" lon="-1.28449">
        <ele>22.31</ele>
        <time>2014-06-06T09:14:27Z</time>
      </trkpt>
      <trkpt lat="47.27828" lon="-1.28454">
        <ele>22.45</ele>
        <time>2014-06-06T09:14:31Z</time>
      </trkpt>
      <trkpt lat="47.27809" lon="-1.2845">
        <ele>22.88</ele>
        <time>2014-06-06T09:14:36Z</time>
      </trkpt>
      <trkpt lat="47.27796" lon="-1.28429">
        <ele>23.32</ele>
        <time>2014-06-06T09:14:41Z</time>
      </trkpt>
      <trkpt lat="47.27783" lon="-1.28407">
        <ele>24.33</ele>
        <time>2014-06-06T09:14:45Z</time>
      </trkpt>
      <trkpt lat="47.2777" lon="-1.28382">
        <ele>24.33</ele>
        <time>2014-06-06T09:14:49Z</time>
      </trkpt>
      <trkpt lat="47.27757" lon="-1.28358">
        <ele>23.85</ele>
        <time>2014-06-06T09:14:53Z</time>
      </trkpt>
      <trkpt lat="47.27743" lon="-1.28333">
        <ele>23.42</ele>
        <time>2014-06-06T09:14:57Z</time>
      </trkpt>
      <trkpt lat="47.2773" lon="-1.2831">
        <ele>23.13</ele>
        <time>2014-06-06T09:15:01Z</time>
      </trkpt>
      <trkpt lat="47.27715" lon="-1.28286">
        <ele>22.55</ele>
        <time>2014-06-06T09:15:06Z</time>
      </trkpt>
      <trkpt lat="47.27701" lon="-1.28268">
        <ele>21.72</ele>
        <time>2014-06-06T09:15:11Z</time>
      </trkpt>
      <trkpt lat="47.27693" lon="-1.28242">
        <ele>21</ele>
        <time>2014-06-06T09:15:16Z</time>
      </trkpt>
      <trkpt lat="47.27685" lon="-1.28214">
        <ele>21.08</ele>
        <time>2014-06-06T09:15:21Z</time>
      </trkpt>
      <trkpt lat="47.2768" lon="-1.28186">
        <ele>19.39</ele>
        <time>2014-06-06T09:15:25Z</time>
      </trkpt>
      <trkpt lat="47.2769" lon="-1.28162">
        <ele>19.07</ele>
        <time>2014-06-06T09:15:30Z</time>
      </trkpt>
      <trkpt lat="47.27709" lon="-1.28147">
        <ele>19.17</ele>
        <time>2014-06-06T09:15:35Z</time>
      </trkpt>
      <trkpt lat="47.27724" lon="-1.28129">
        <ele>19.78</ele>
        <time>2014-06-06T09:15:39Z</time>
      </trkpt>
      <trkpt lat="47.27739" lon="-1.28112">
        <ele>19.98</ele>
        <time>2014-06-06T09:15:43Z</time>
      </trkpt>
      <trkpt lat="47.27754" lon="-1.28097">
        <ele>20.17</ele>
        <time>2014-06-06T09:15:49Z</time>
      </trkpt>
      <trkpt lat="47.27737" lon="-1.28083">
        <ele>17.27</ele>
        <time>2014-06-06T09:17:35Z</time>
      </trkpt>
      <trkpt lat="47.27733" lon="-1.2805">
        <ele>16.62</ele>
        <time>2014-06-06T09:17:40Z</time>
      </trkpt>
      <trkpt lat="47.27727" lon="-1.28022">
        <ele>15.55</ele>
        <time>2014-06-06T09:17:44Z</time>
      </trkpt>
      <trkpt lat="47.27722" lon="-1.27995">
        <ele>13.77</ele>
        <time>2014-06-06T09:17:48Z</time>
      </trkpt>
      <trkpt lat="47.27716" lon="-1.27964">
        <ele>12.77</ele>
        <time>2014-06-06T09:17:53Z</time>
      </trkpt>
      <trkpt lat="47.2771" lon="-1.27938">
        <ele>12.07</ele>
        <time>2014-06-06T09:17:58Z</time>
      </trkpt>
      <trkpt lat="47.27705" lon="-1.27911">
        <ele>11.44</ele>
        <time>2014-06-06T09:18:02Z</time>
      </trkpt>
      <trkpt lat="47.27707" lon="-1.27881">
        <ele>9.04</ele>
        <time>2014-06-06T09:18:08Z</time>
      </trkpt>
      <trkpt lat="47.2771" lon="-1.27852">
        <ele>7.02</ele>
        <time>2014-06-06T09:18:13Z</time>
      </trkpt>
      <trkpt lat="47.27708" lon="-1.27825">
        <ele>4.39</ele>
        <time>2014-06-06T09:18:17Z</time>
      </trkpt>
      <trkpt lat="47.277" lon="-1.27795">
        <ele>0.44</ele>
        <time>2014-06-06T09:18:22Z</time>
      </trkpt>
      <trkpt lat="47.27696" lon="-1.27768">
        <ele>-3.04</ele>
        <time>2014-06-06T09:18:27Z</time>
      </trkpt>
      <trkpt lat="47.27696" lon="-1.27736">
        <ele>-6.22</ele>
        <time>2014-06-06T09:18:32Z</time>
      </trkpt>
      <trkpt lat="47.27701" lon="-1.2771">
        <ele>-8.14</ele>
        <time>2014-06-06T09:18:36Z</time>
      </trkpt>
      <trkpt lat="47.27706" lon="-1.2768">
        <ele>-10.58</ele>
        <time>2014-06-06T09:18:41Z</time>
      </trkpt>
      <trkpt lat="47.27717" lon="-1.27654">
        <ele>-13.18</ele>
        <time>2014-06-06T09:18:46Z</time>
      </trkpt>
      <trkpt lat="47.27724" lon="-1.27624">
        <ele>-15.6</ele>
        <time>2014-06-06T09:18:51Z</time>
      </trkpt>
      <trkpt lat="47.2773" lon="-1.27595">
        <ele>-18.69</ele>
        <time>2014-06-06T09:18:57Z</time>
      </trkpt>
      <trkpt lat="47.27734" lon="-1.27568">
        <ele>-23.52</ele>
        <time>2014-06-06T09:19:05Z</time>
      </trkpt>
      <trkpt lat="47.27752" lon="-1.27569">
        <ele>-27.21</ele>
        <time>2014-06-06T09:19:31Z</time>
      </trkpt>
      <trkpt lat="47.27766" lon="-1.27587">
        <ele>-25.64</ele>
        <time>2014-06-06T09:20:01Z</time>
      </trkpt>
      <trkpt lat="47.27784" lon="-1.27598">
        <ele>-24.57</ele>
        <time>2014-06-06T09:20:07Z</time>
      </trkpt>
      <trkpt lat="47.278" lon="-1.27618">
        <ele>-23.24</ele>
        <time>2014-06-06T09:20:14Z</time>
      </trkpt>
      <trkpt lat="47.27806" lon="-1.27643">
        <ele>-21.57</ele>
        <time>2014-06-06T09:20:21Z</time>
      </trkpt>
      <trkpt lat="47.27815" lon="-1.27666">
        <ele>-19.99</ele>
        <time>2014-06-06T09:20:28Z</time>
      </trkpt>
      <trkpt lat="47.27829" lon="-1.27689">
        <ele>-17.84</ele>
        <time>2014-06-06T09:20:34Z</time>
      </trkpt>
      <trkpt lat="47.27847" lon="-1.27693">
        <ele>-15.4</ele>
        <time>2014-06-06T09:20:42Z</time>
      </trkpt>
      <trkpt lat="47.2786" lon="-1.27712">
        <ele>-13.38</ele>
        <time>2014-06-06T09:20:50Z</time>
      </trkpt>
      <trkpt lat="47.27884" lon="-1.27737">
        <ele>-11.02</ele>
        <time>2014-06-06T09:21:02Z</time>
      </trkpt>
      <trkpt lat="47.27901" lon="-1.27744">
        <ele>-9.54</ele>
        <time>2014-06-06T09:21:21Z</time>
      </trkpt>
      <trkpt lat="47.27899" lon="-1.2777">
        <ele>-8.09</ele>
        <time>2014-06-06T09:22:53Z</time>
      </trkpt>
      <trkpt lat="47.27918" lon="-1.27775">
        <ele>-7.64</ele>
        <time>2014-06-06T09:24:00Z</time>
      </trkpt>
      <trkpt lat="47.27936" lon="-1.27771">
        <ele>-7.29</ele>
        <time>2014-06-06T09:24:38Z</time>
      </trkpt>
      <trkpt lat="47.27954" lon="-1.27765">
        <ele>-10.14</ele>
        <time>2014-06-06T09:25:37Z</time>
      </trkpt>
      <trkpt lat="47.27973" lon="-1.27758">
        <ele>-10.59</ele>
        <time>2014-06-06T09:26:00Z</time>
      </trkpt>
      <trkpt lat="47.27993" lon="-1.27758">
        <ele>-10.75</ele>
        <time>2014-06-06T09:26:09Z</time>
      </trkpt>
      <trkpt lat="47.28012" lon="-1.2775">
        <ele>-11.18</ele>
        <time>2014-06-06T09:26:17Z</time>
      </trkpt>
      <trkpt lat="47.28031" lon="-1.27752">
        <ele>-13.24</ele>
        <time>2014-06-06T09:26:30Z</time>
      </trkpt>
      <trkpt lat="47.28054" lon="-1.27755">
        <ele>-14.86</ele>
        <time>2014-06-06T09:26:38Z</time>
      </trkpt>
      <trkpt lat="47.28056" lon="-1.27781">
        <ele>-17.06</ele>
        <time>2014-06-06T09:26:53Z</time>
      </trkpt>
      <trkpt lat="47.28044" lon="-1.27803">
        <ele>-16.1</ele>
        <time>2014-06-06T09:27:11Z</time>
      </trkpt>
      <trkpt lat="47.2803" lon="-1.27821">
        <ele>-14.94</ele>
        <time>2014-06-06T09:27:21Z</time>
      </trkpt>
      <trkpt lat="47.28015" lon="-1.27838">
        <ele>-12.03</ele>
        <time>2014-06-06T09:27:52Z</time>
      </trkpt>
      <trkpt lat="47.27998" lon="-1.27855">
        <ele>-11.73</ele>
        <time>2014-06-06T09:28:00Z</time>
      </trkpt>
      <trkpt lat="47.27983" lon="-1.27871">
        <ele>-13.29</ele>
        <time>2014-06-06T09:28:18Z</time>
      </trkpt>
      <trkpt lat="47.27974" lon="-1.27895">
        <ele>-9.68</ele>
        <time>2014-06-06T09:28:41Z</time>
      </trkpt>
      <trkpt lat="47.27961" lon="-1.27916">
        <ele>-5.12</ele>
        <time>2014-06-06T09:29:03Z</time>
      </trkpt>
      <trkpt lat="47.27951" lon="-1.27939">
        <ele>-2.51</ele>
        <time>2014-06-06T09:29:23Z</time>
      </trkpt>
      <trkpt lat="47.2794" lon="-1.27963">
        <ele>-0.43</ele>
        <time>2014-06-06T09:30:04Z</time>
      </trkpt>
      <trkpt lat="47.2793" lon="-1.27985">
        <ele>0.85</ele>
        <time>2014-06-06T09:30:21Z</time>
      </trkpt>
      <trkpt lat="47.27919" lon="-1.28008">
        <ele>2.26</ele>
        <time>2014-06-06T09:30:38Z</time>
      </trkpt>
      <trkpt lat="47.27911" lon="-1.28035">
        <ele>6.74</ele>
        <time>2014-06-06T09:33:00Z</time>
      </trkpt>
      <trkpt lat="47.27904" lon="-1.28064">
        <ele>6.77</ele>
        <time>2014-06-06T09:33:06Z</time>
      </trkpt>
      <trkpt lat="47.27896" lon="-1.28092">
        <ele>6.84</ele>
        <time>2014-06-06T09:33:11Z</time>
      </trkpt>
      <trkpt lat="47.27891" lon="-1.28119">
        <ele>7.45</ele>
        <time>2014-06-06T09:33:16Z</time>
      </trkpt>
      <trkpt lat="47.27887" lon="-1.2815">
        <ele>8.2</ele>
        <time>2014-06-06T09:33:21Z</time>
      </trkpt>
      <trkpt lat="47.27883" lon="-1.28177">
        <ele>9.38</ele>
        <time>2014-06-06T09:33:28Z</time>
      </trkpt>
      <trkpt lat="47.27882" lon="-1.28205">
        <ele>10.74</ele>
        <time>2014-06-06T09:33:34Z</time>
      </trkpt>
      <trkpt lat="47.27882" lon="-1.28234">
        <ele>12.54</ele>
        <time>2014-06-06T09:33:40Z</time>
      </trkpt>
      <trkpt lat="47.27884" lon="-1.28261">
        <ele>14.25</ele>
        <time>2014-06-06T09:33:45Z</time>
      </trkpt>
      <trkpt lat="47.27886" lon="-1.28288">
        <ele>15.62</ele>
        <time>2014-06-06T09:33:50Z</time>
      </trkpt>
      <trkpt lat="47.2789" lon="-1.28315">
        <ele>17.72</ele>
        <time>2014-06-06T09:33:55Z</time>
      </trkpt>
      <trkpt lat="47.27897" lon="-1.2834">
        <ele>19.37</ele>
        <time>2014-06-06T09:34:00Z</time>
      </trkpt>
      <trkpt lat="47.27899" lon="-1.28369">
        <ele>20.91</ele>
        <time>2014-06-06T09:34:05Z</time>
      </trkpt>
      <trkpt lat="47.279" lon="-1.28396">
        <ele>22.38</ele>
        <time>2014-06-06T09:34:11Z</time>
      </trkpt>
      <trkpt lat="47.27887" lon="-1.28419">
        <ele>22.76</ele>
        <time>2014-06-06T09:34:21Z</time>
      </trkpt>
      <trkpt lat="47.27873" lon="-1.28436">
        <ele>22.72</ele>
        <time>2014-06-06T09:34:32Z</time>
      </trkpt>
      <trkpt lat="47.27856" lon="-1.28448">
        <ele>23.19</ele>
        <time>2014-06-06T09:34:39Z</time>
      </trkpt>
      <trkpt lat="47.27838" lon="-1.28452">
        <ele>23.48</ele>
        <time>2014-06-06T09:34:45Z</time>
      </trkpt>
      <trkpt lat="47.27822" lon="-1.28468">
        <ele>24.08</ele>
        <time>2014-06-06T09:34:51Z</time>
      </trkpt>
      <trkpt lat="47.27822" lon="-1.28497">
        <ele>24.64</ele>
        <time>2014-06-06T09:34:56Z</time>
      </trkpt>
      <trkpt lat="47.27823" lon="-1.2853">
        <ele>25.25</ele>
        <time>2014-06-06T09:35:01Z</time>
      </trkpt>
      <trkpt lat="47.27823" lon="-1.28558">
        <ele>26.15</ele>
        <time>2014-06-06T09:35:05Z</time>
      </trkpt>
      <trkpt lat="47.27823" lon="-1.28585">
        <ele>26.81</ele>
        <time>2014-06-06T09:35:10Z</time>
      </trkpt>
      <trkpt lat="47.27824" lon="-1.28614">
        <ele>28.09</ele>
        <time>2014-06-06T09:35:17Z</time>
      </trkpt>
      <trkpt lat="47.27807" lon="-1.2863">
        <ele>29.19</ele>
        <time>2014-06-06T09:35:31Z</time>
      </trkpt>
      <trkpt lat="47.27787" lon="-1.28645">
        <ele>29.19</ele>
        <time>2014-06-06T09:35:36Z</time>
      </trkpt>
      <trkpt lat="47.27767" lon="-1.28651">
        <ele>29.23</ele>
        <time>2014-06-06T09:35:43Z</time>
      </trkpt>
      <trkpt lat="47.27751" lon="-1.28629">
        <ele>29.14</ele>
        <time>2014-06-06T09:35:49Z</time>
      </trkpt>
      <trkpt lat="47.27737" lon="-1.28613">
        <ele>29.92</ele>
        <time>2014-06-06T09:35:54Z</time>
      </trkpt>
      <trkpt lat="47.27721" lon="-1.28597">
        <ele>30.94</ele>
        <time>2014-06-06T09:35:59Z</time>
      </trkpt>
      <trkpt lat="47.27705" lon="-1.28578">
        <ele>32.05</ele>
        <time>2014-06-06T09:36:04Z</time>
      </trkpt>
      <trkpt lat="47.2769" lon="-1.28557">
        <ele>32.31</ele>
        <time>2014-06-06T09:36:08Z</time>
      </trkpt>
      <trkpt lat="47.27681" lon="-1.28532">
        <ele>32.94</ele>
        <time>2014-06-06T09:36:13Z</time>
      </trkpt>
      <trkpt lat="47.27671" lon="-1.28507">
        <ele>33.61</ele>
        <time>2014-06-06T09:36:18Z</time>
      </trkpt>
      <trkpt lat="47.27662" lon="-1.28484">
        <ele>34.36</ele>
        <time>2014-06-06T09:36:22Z</time>
      </trkpt>
      <trkpt lat="47.27649" lon="-1.28456">
        <ele>32.38</ele>
        <time>2014-06-06T09:36:26Z</time>
      </trkpt>
      <trkpt lat="47.27644" lon="-1.28425">
        <ele>31.93</ele>
        <time>2014-06-06T09:36:30Z</time>
      </trkpt>
      <trkpt lat="47.27639" lon="-1.28392">
        <ele>31.78</ele>
        <time>2014-06-06T09:36:34Z</time>
      </trkpt>
      <trkpt lat="47.27632" lon="-1.28359">
        <ele>31.35</ele>
        <time>2014-06-06T09:36:38Z</time>
      </trkpt>
      <trkpt lat="47.27624" lon="-1.28334">
        <ele>30.71</ele>
        <time>2014-06-06T09:36:41Z</time>
      </trkpt>
      <trkpt lat="47.27613" lon="-1.28309">
        <ele>29.78</ele>
        <time>2014-06-06T09:36:44Z</time>
      </trkpt>
      <trkpt lat="47.27601" lon="-1.28285">
        <ele>27.95</ele>
        <time>2014-06-06T09:36:47Z</time>
      </trkpt>
      <trkpt lat="47.27588" lon="-1.28261">
        <ele>25.2</ele>
        <time>2014-06-06T09:36:50Z</time>
      </trkpt>
      <trkpt lat="47.27576" lon="-1.28234">
        <ele>23.2</ele>
        <time>2014-06-06T09:36:53Z</time>
      </trkpt>
      <trkpt lat="47.27568" lon="-1.28204">
        <ele>21.57</ele>
        <time>2014-06-06T09:36:56Z</time>
      </trkpt>
      <trkpt lat="47.27562" lon="-1.28169">
        <ele>20.28</ele>
        <time>2014-06-06T09:36:59Z</time>
      </trkpt>
      <trkpt lat="47.27556" lon="-1.28133">
        <ele>19.01</ele>
        <time>2014-06-06T09:37:02Z</time>
      </trkpt>
      <trkpt lat="47.27544" lon="-1.28099">
        <ele>17.43</ele>
        <time>2014-06-06T09:37:05Z</time>
      </trkpt>
      <trkpt lat="47.27532" lon="-1.28072">
        <ele>16.05</ele>
        <time>2014-06-06T09:37:08Z</time>
      </trkpt>
      <trkpt lat="47.27506" lon="-1.28072">
        <ele>15.16</ele>
        <time>2014-06-06T09:37:11Z</time>
      </trkpt>
      <trkpt lat="47.27481" lon="-1.28078">
        <ele>14.17</ele>
        <time>2014-06-06T09:37:14Z</time>
      </trkpt>
      <trkpt lat="47.27462" lon="-1.28083">
        <ele>13.12</ele>
        <time>2014-06-06T09:37:16Z</time>
      </trkpt>
      <trkpt lat="47.27437" lon="-1.28084">
        <ele>11.87</ele>
        <time>2014-06-06T09:37:19Z</time>
      </trkpt>
      <trkpt lat="47.27414" lon="-1.28083">
        <ele>11.01</ele>
        <time>2014-06-06T09:37:22Z</time>
      </trkpt>
      <trkpt lat="47.2739" lon="-1.28074">
        <ele>10.21</ele>
        <time>2014-06-06T09:37:25Z</time>
      </trkpt>
      <trkpt lat="47.27367" lon="-1.28057">
        <ele>9.35</ele>
        <time>2014-06-06T09:37:28Z</time>
      </trkpt>
      <trkpt lat="47.27346" lon="-1.28036">
        <ele>8.49</ele>
        <time>2014-06-06T09:37:31Z</time>
      </trkpt>
      <trkpt lat="47.27328" lon="-1.28012">
        <ele>7.57</ele>
        <time>2014-06-06T09:37:34Z</time>
      </trkpt>
      <trkpt lat="47.27308" lon="-1.27989">
        <ele>6.39</ele>
        <time>2014-06-06T09:37:37Z</time>
      </trkpt>
      <trkpt lat="47.27286" lon="-1.2797">
        <ele>4.6</ele>
        <time>2014-06-06T09:37:40Z</time>
      </trkpt>
      <trkpt lat="47.27268" lon="-1.27971">
        <ele>3.05</ele>
        <time>2014-06-06T09:37:42Z</time>
      </trkpt>
      <trkpt lat="47.27253" lon="-1.28002">
        <ele>1.2</ele>
        <time>2014-06-06T09:37:45Z</time>
      </trkpt>
      <trkpt lat="47.27244" lon="-1.28026">
        <ele>0.2</ele>
        <time>2014-06-06T09:37:47Z</time>
      </trkpt>
      <trkpt lat="47.27231" lon="-1.28044">
        <ele>-0.93</ele>
        <time>2014-06-06T09:37:49Z</time>
      </trkpt>
      <trkpt lat="47.27213" lon="-1.28049">
        <ele>-1.74</ele>
        <time>2014-06-06T09:37:51Z</time>
      </trkpt>
      <trkpt lat="47.27193" lon="-1.28039">
        <ele>-2.66</ele>
        <time>2014-06-06T09:37:53Z</time>
      </trkpt>
      <trkpt lat="47.2718" lon="-1.28008">
        <ele>-3.75</ele>
        <time>2014-06-06T09:37:56Z</time>
      </trkpt>
      <trkpt lat="47.27195" lon="-1.27984">
        <ele>-4.49</ele>
        <time>2014-06-06T09:37:58Z</time>
      </trkpt>
      <trkpt lat="47.27209" lon="-1.27961">
        <ele>-5.45</ele>
        <time>2014-06-06T09:38:00Z</time>
      </trkpt>
      <trkpt lat="47.27221" lon="-1.27937">
        <ele>-6.19</ele>
        <time>2014-06-06T09:38:02Z</time>
      </trkpt>
      <trkpt lat="47.27235" lon="-1.2791">
        <ele>-7.32</ele>
        <time>2014-06-06T09:38:05Z</time>
      </trkpt>
      <trkpt lat="47.27252" lon="-1.27899">
        <ele>-8.18</ele>
        <time>2014-06-06T09:38:07Z</time>
      </trkpt>
      <trkpt lat="47.27277" lon="-1.27897">
        <ele>-9.62</ele>
        <time>2014-06-06T09:38:10Z</time>
      </trkpt>
      <trkpt lat="47.27299" lon="-1.27902">
        <ele>-11.21</ele>
        <time>2014-06-06T09:38:13Z</time>
      </trkpt>
      <trkpt lat="47.27319" lon="-1.27906">
        <ele>-12.23</ele>
        <time>2014-06-06T09:38:16Z</time>
      </trkpt>
      <trkpt lat="47.27343" lon="-1.2791">
        <ele>-13.59</ele>
        <time>2014-06-06T09:38:20Z</time>
      </trkpt>
      <trkpt lat="47.27364" lon="-1.27917">
        <ele>-14.57</ele>
        <time>2014-06-06T09:38:24Z</time>
      </trkpt>
      <trkpt lat="47.27382" lon="-1.27922">
        <ele>-14.93</ele>
        <time>2014-06-06T09:38:28Z</time>
      </trkpt>
      <trkpt lat="47.27401" lon="-1.27931">
        <ele>-15.01</ele>
        <time>2014-06-06T09:38:33Z</time>
      </trkpt>
      <trkpt lat="47.27419" lon="-1.27946">
        <ele>-15.36</ele>
        <time>2014-06-06T09:38:38Z</time>
      </trkpt>
      <trkpt lat="47.27431" lon="-1.27967">
        <ele>-16.53</ele>
        <time>2014-06-06T09:38:42Z</time>
      </trkpt>
      <trkpt lat="47.27434" lon="-1.27996">
        <ele>-16.83</ele>
        <time>2014-06-06T09:38:46Z</time>
      </trkpt>
      <trkpt lat="47.27443" lon="-1.28021">
        <ele>-16.43</ele>
        <time>2014-06-06T09:38:54Z</time>
      </trkpt>
      <trkpt lat="47.27423" lon="-1.28024">
        <ele>-16.41</ele>
        <time>2014-06-06T09:39:00Z</time>
      </trkpt>
      <trkpt lat="47.27405" lon="-1.28021">
        <ele>-16.17</ele>
        <time>2014-06-06T09:39:04Z</time>
      </trkpt>
      <trkpt lat="47.27384" lon="-1.28014">
        <ele>-16.02</ele>
        <time>2014-06-06T09:39:09Z</time>
      </trkpt>
      <trkpt lat="47.27405" lon="-1.28003">
        <ele>-11.14</ele>
        <time>2014-06-06T09:40:31Z</time>
      </trkpt>
      <trkpt lat="47.27422" lon="-1.28006">
        <ele>-11.48</ele>
        <time>2014-06-06T09:40:34Z</time>
      </trkpt>
      <trkpt lat="47.27442" lon="-1.28012">
        <ele>-11.64</ele>
        <time>2014-06-06T09:40:37Z</time>
      </trkpt>
      <trkpt lat="47.27456" lon="-1.27989">
        <ele>-11.59</ele>
        <time>2014-06-06T09:40:43Z</time>
      </trkpt>
      <trkpt lat="47.27436" lon="-1.2798">
        <ele>-11.51</ele>
        <time>2014-06-06T09:40:46Z</time>
      </trkpt>
      <trkpt lat="47.27425" lon="-1.27949">
        <ele>-12.1</ele>
        <time>2014-06-06T09:40:50Z</time>
      </trkpt>
      <trkpt lat="47.2741" lon="-1.27931">
        <ele>-12.92</ele>
        <time>2014-06-06T09:40:55Z</time>
      </trkpt>
      <trkpt lat="47.27419" lon="-1.27955">
        <ele>-14.12</ele>
        <time>2014-06-06T09:41:01Z</time>
      </trkpt>
      <trkpt lat="47.27431" lon="-1.27979">
        <ele>-14.69</ele>
        <time>2014-06-06T09:41:05Z</time>
      </trkpt>
      <trkpt lat="47.27411" lon="-1.2798">
        <ele>-14.72</ele>
        <time>2014-06-06T09:41:10Z</time>
      </trkpt>
      <trkpt lat="47.27391" lon="-1.27974">
        <ele>-15.34</ele>
        <time>2014-06-06T09:41:14Z</time>
      </trkpt>
      <trkpt lat="47.27373" lon="-1.27973">
        <ele>-15.19</ele>
        <time>2014-06-06T09:41:49Z</time>
      </trkpt>
      <trkpt lat="47.27354" lon="-1.27958">
        <ele>-15.01</ele>
        <time>2014-06-06T09:42:15Z</time>
      </trkpt>
      <trkpt lat="47.27335" lon="-1.27941">
        <ele>-14.71</ele>
        <time>2014-06-06T09:42:20Z</time>
      </trkpt>
      <trkpt lat="47.27318" lon="-1.27926">
        <ele>-14.55</ele>
        <time>2014-06-06T09:42:25Z</time>
      </trkpt>
      <trkpt lat="47.27304" lon="-1.27907">
        <ele>-14.39</ele>
        <time>2014-06-06T09:42:29Z</time>
      </trkpt>
      <trkpt lat="47.27287" lon="-1.27894">
        <ele>-14.06</ele>
        <time>2014-06-06T09:42:33Z</time>
      </trkpt>
      <trkpt lat="47.27266" lon="-1.27896">
        <ele>-13.36</ele>
        <time>2014-06-06T09:42:39Z</time>
      </trkpt>
      <trkpt lat="47.27246" lon="-1.27901">
        <ele>-13.89</ele>
        <time>2014-06-06T09:42:44Z</time>
      </trkpt>
      <trkpt lat="47.27228" lon="-1.27913">
        <ele>-15.18</ele>
        <time>2014-06-06T09:42:52Z</time>
      </trkpt>
      <trkpt lat="47.27215" lon="-1.2794">
        <ele>-15.72</ele>
        <time>2014-06-06T09:42:58Z</time>
      </trkpt>
      <trkpt lat="47.27204" lon="-1.27968">
        <ele>-15.9</ele>
        <time>2014-06-06T09:43:03Z</time>
      </trkpt>
      <trkpt lat="47.27194" lon="-1.27995">
        <ele>-15.15</ele>
        <time>2014-06-06T09:43:09Z</time>
      </trkpt>
      <trkpt lat="47.27197" lon="-1.28024">
        <ele>-14.75</ele>
        <time>2014-06-06T09:43:15Z</time>
      </trkpt>
      <trkpt lat="47.27211" lon="-1.28043">
        <ele>-14.11</ele>
        <time>2014-06-06T09:43:21Z</time>
      </trkpt>
      <trkpt lat="47.27205" lon="-1.28068">
        <ele>-13.28</ele>
        <time>2014-06-06T09:43:28Z</time>
      </trkpt>
      <trkpt lat="47.2719" lon="-1.28083">
        <ele>-12.77</ele>
        <time>2014-06-06T09:43:33Z</time>
      </trkpt>
      <trkpt lat="47.27175" lon="-1.28106">
        <ele>-12.4</ele>
        <time>2014-06-06T09:43:38Z</time>
      </trkpt>
      <trkpt lat="47.27171" lon="-1.28134">
        <ele>-11.29</ele>
        <time>2014-06-06T09:43:43Z</time>
      </trkpt>
      <trkpt lat="47.27174" lon="-1.28163">
        <ele>-10.37</ele>
        <time>2014-06-06T09:43:49Z</time>
      </trkpt>
      <trkpt lat="47.27183" lon="-1.28191">
        <ele>-11.06</ele>
        <time>2014-06-06T09:43:53Z</time>
      </trkpt>
      <trkpt lat="47.27191" lon="-1.28217">
        <ele>-10.88</ele>
        <time>2014-06-06T09:43:57Z</time>
      </trkpt>
      <trkpt lat="47.27194" lon="-1.28248">
        <ele>-9.87</ele>
        <time>2014-06-06T09:44:02Z</time>
      </trkpt>
      <trkpt lat="47.27198" lon="-1.28277">
        <ele>-9.48</ele>
        <time>2014-06-06T09:44:07Z</time>
      </trkpt>
      <trkpt lat="47.27199" lon="-1.28304">
        <ele>-8.84</ele>
        <time>2014-06-06T09:44:12Z</time>
      </trkpt>
      <trkpt lat="47.27198" lon="-1.28332">
        <ele>-7.77</ele>
        <time>2014-06-06T09:44:17Z</time>
      </trkpt>
      <trkpt lat="47.2719" lon="-1.28356">
        <ele>-7.2</ele>
        <time>2014-06-06T09:44:21Z</time>
      </trkpt>
      <trkpt lat="47.27183" lon="-1.28382">
        <ele>-6.52</ele>
        <time>2014-06-06T09:44:25Z</time>
      </trkpt>
      <trkpt lat="47.27178" lon="-1.28413">
        <ele>-5.58</ele>
        <time>2014-06-06T09:44:30Z</time>
      </trkpt>
      <trkpt lat="47.27172" lon="-1.28442">
        <ele>-4.91</ele>
        <time>2014-06-06T09:44:35Z</time>
      </trkpt>
      <trkpt lat="47.27167" lon="-1.28471">
        <ele>-4.06</ele>
        <time>2014-06-06T09:44:40Z</time>
      </trkpt>
      <trkpt lat="47.27158" lon="-1.28497">
        <ele>-3.58</ele>
        <time>2014-06-06T09:44:44Z</time>
      </trkpt>
      <trkpt lat="47.2716" lon="-1.28529">
        <ele>-3.23</ele>
        <time>2014-06-06T09:44:48Z</time>
      </trkpt>
      <trkpt lat="47.27157" lon="-1.28564">
        <ele>-2.58</ele>
        <time>2014-06-06T09:44:52Z</time>
      </trkpt>
      <trkpt lat="47.27152" lon="-1.28592">
        <ele>-2.27</ele>
        <time>2014-06-06T09:44:55Z</time>
      </trkpt>
      <trkpt lat="47.27152" lon="-1.28621">
        <ele>-1.47</ele>
        <time>2014-06-06T09:44:59Z</time>
      </trkpt>
      <trkpt lat="47.27158" lon="-1.2865">
        <ele>0.07</ele>
        <time>2014-06-06T09:45:04Z</time>
      </trkpt>
      <trkpt lat="47.27159" lon="-1.2868">
        <ele>1.48</ele>
        <time>2014-06-06T09:45:08Z</time>
      </trkpt>
      <trkpt lat="47.27157" lon="-1.28707">
        <ele>3.04</ele>
        <time>2014-06-06T09:45:12Z</time>
      </trkpt>
      <trkpt lat="47.27158" lon="-1.28739">
        <ele>4.25</ele>
        <time>2014-06-06T09:45:17Z</time>
      </trkpt>
      <trkpt lat="47.27161" lon="-1.2877">
        <ele>4.92</ele>
        <time>2014-06-06T09:45:21Z</time>
      </trkpt>
      <trkpt lat="47.27167" lon="-1.288">
        <ele>6.18</ele>
        <time>2014-06-06T09:45:26Z</time>
      </trkpt>
      <trkpt lat="47.27171" lon="-1.28832">
        <ele>6.76</ele>
        <time>2014-06-06T09:45:30Z</time>
      </trkpt>
      <trkpt lat="47.27178" lon="-1.28859">
        <ele>6.6</ele>
        <time>2014-06-06T09:45:33Z</time>
      </trkpt>
      <trkpt lat="47.27186" lon="-1.28889">
        <ele>6.96</ele>
        <time>2014-06-06T09:45:37Z</time>
      </trkpt>
      <trkpt lat="47.27191" lon="-1.28915">
        <ele>7.67</ele>
        <time>2014-06-06T09:45:41Z</time>
      </trkpt>
      <trkpt lat="47.27201" lon="-1.28937">
        <ele>8.82</ele>
        <time>2014-06-06T09:45:48Z</time>
      </trkpt>
      <trkpt lat="47.27209" lon="-1.28962">
        <ele>10.28</ele>
        <time>2014-06-06T09:45:57Z</time>
      </trkpt>
      <trkpt lat="47.27212" lon="-1.2899">
        <ele>11.03</ele>
        <time>2014-06-06T09:46:04Z</time>
      </trkpt>
      <trkpt lat="47.2722" lon="-1.29016">
        <ele>13.09</ele>
        <time>2014-06-06T09:46:14Z</time>
      </trkpt>
      <trkpt lat="47.27234" lon="-1.29038">
        <ele>15.71</ele>
        <time>2014-06-06T09:46:23Z</time>
      </trkpt>
      <trkpt lat="47.27245" lon="-1.29063">
        <ele>16.98</ele>
        <time>2014-06-06T09:46:29Z</time>
      </trkpt>
      <trkpt lat="47.27261" lon="-1.29074">
        <ele>17.75</ele>
        <time>2014-06-06T09:46:34Z</time>
      </trkpt>
      <trkpt lat="47.27281" lon="-1.29089">
        <ele>17.55</ele>
        <time>2014-06-06T09:46:38Z</time>
      </trkpt>
      <trkpt lat="47.27296" lon="-1.29104">
        <ele>18.81</ele>
        <time>2014-06-06T09:46:43Z</time>
      </trkpt>
      <trkpt lat="47.27311" lon="-1.29123">
        <ele>19.65</ele>
        <time>2014-06-06T09:46:47Z</time>
      </trkpt>
      <trkpt lat="47.27323" lon="-1.29148">
        <ele>19.71</ele>
        <time>2014-06-06T09:46:52Z</time>
      </trkpt>
      <trkpt lat="47.27329" lon="-1.29174">
        <ele>19.71</ele>
        <time>2014-06-06T09:46:57Z</time>
      </trkpt>
      <trkpt lat="47.27336" lon="-1.29203">
        <ele>20.21</ele>
        <time>2014-06-06T09:47:03Z</time>
      </trkpt>
      <trkpt lat="47.27342" lon="-1.29176">
        <ele>21.31</ele>
        <time>2014-06-06T09:47:12Z</time>
      </trkpt>
    </trkseg>
  </trk>
</gpx>